<?xml version="1.0" encoding="UTF-8" standalone="no" ?>
<gpx xmlns="http://www.topografix.com/GPX/1/1" xmlns:xsi="http://www.w3.org/2001/XMLSchema-instance" xsi:schemaLocation="http://www.topografix.com/GPX/1/1 http://www.topografix.com/GPX/1/1/gpx.xsd" version="1.1" creator="VisuGPX - https://www.visugpx.com">
  <metadata>
    <name>Morgat 7 km</name>
    <desc><![CDATA[Petite balade en famille sur la cote bretonne]]></desc>
  </metadata>
  <trk>
    <name><![CDATA[ACTIVE LOG122737]]></name>
    <trkseg>
      <trkpt lat="48.21679" lon="-4.51888">
        <ele>34.285</ele>
        <time>2009-05-01T10:27:36Z</time>
      </trkpt>
      <trkpt lat="48.21677" lon="-4.5189">
        <ele>34.116</ele>
        <time>2009-05-01T10:27:38Z</time>
      </trkpt>
      <trkpt lat="48.21671" lon="-4.51881">
        <ele>35.036</ele>
        <time>2009-05-01T10:27:44Z</time>
      </trkpt>
      <trkpt lat="48.21663" lon="-4.51875">
        <ele>39.637</ele>
        <time>2009-05-01T10:27:49Z</time>
      </trkpt>
      <trkpt lat="48.21656" lon="-4.51863">
        <ele>37.124</ele>
        <time>2009-05-01T10:28:02Z</time>
      </trkpt>
      <trkpt lat="48.21653" lon="-4.51862">
        <ele>37.784</ele>
        <time>2009-05-01T10:28:17Z</time>
      </trkpt>
      <trkpt lat="48.21656" lon="-4.51841">
        <ele>39.967</ele>
        <time>2009-05-01T10:28:28Z</time>
      </trkpt>
      <trkpt lat="48.21658" lon="-4.51829">
        <ele>39.505</ele>
        <time>2009-05-01T10:28:39Z</time>
      </trkpt>
      <trkpt lat="48.21659" lon="-4.51827">
        <ele>39.011</ele>
        <time>2009-05-01T10:28:40Z</time>
      </trkpt>
      <trkpt lat="48.21661" lon="-4.51821">
        <ele>38.028</ele>
        <time>2009-05-01T10:28:45Z</time>
      </trkpt>
      <trkpt lat="48.21661" lon="-4.51798">
        <ele>40.764</ele>
        <time>2009-05-01T10:29:00Z</time>
      </trkpt>
      <trkpt lat="48.21662" lon="-4.51779">
        <ele>43.351</ele>
        <time>2009-05-01T10:29:15Z</time>
      </trkpt>
      <trkpt lat="48.21664" lon="-4.5176">
        <ele>44.263</ele>
        <time>2009-05-01T10:29:27Z</time>
      </trkpt>
      <trkpt lat="48.21669" lon="-4.51741">
        <ele>43.929</ele>
        <time>2009-05-01T10:29:40Z</time>
      </trkpt>
      <trkpt lat="48.2167" lon="-4.51733">
        <ele>43.768</ele>
        <time>2009-05-01T10:29:44Z</time>
      </trkpt>
      <trkpt lat="48.21671" lon="-4.51731">
        <ele>44.594</ele>
        <time>2009-05-01T10:29:46Z</time>
      </trkpt>
      <trkpt lat="48.21672" lon="-4.51728">
        <ele>44.723</ele>
        <time>2009-05-01T10:29:48Z</time>
      </trkpt>
      <trkpt lat="48.21678" lon="-4.51701">
        <ele>46.62</ele>
        <time>2009-05-01T10:30:04Z</time>
      </trkpt>
      <trkpt lat="48.21678" lon="-4.51694">
        <ele>46.4</ele>
        <time>2009-05-01T10:30:08Z</time>
      </trkpt>
      <trkpt lat="48.2167" lon="-4.51675">
        <ele>47.853</ele>
        <time>2009-05-01T10:30:22Z</time>
      </trkpt>
      <trkpt lat="48.2166" lon="-4.51657">
        <ele>48.12</ele>
        <time>2009-05-01T10:30:36Z</time>
      </trkpt>
      <trkpt lat="48.21646" lon="-4.51638">
        <ele>49.362</ele>
        <time>2009-05-01T10:30:52Z</time>
      </trkpt>
      <trkpt lat="48.21643" lon="-4.51631">
        <ele>49.579</ele>
        <time>2009-05-01T10:30:58Z</time>
      </trkpt>
      <trkpt lat="48.21637" lon="-4.51621">
        <ele>48.537</ele>
        <time>2009-05-01T10:31:08Z</time>
      </trkpt>
      <trkpt lat="48.21635" lon="-4.51617">
        <ele>49.129</ele>
        <time>2009-05-01T10:31:11Z</time>
      </trkpt>
      <trkpt lat="48.2162" lon="-4.51594">
        <ele>52.94</ele>
        <time>2009-05-01T10:31:28Z</time>
      </trkpt>
      <trkpt lat="48.21619" lon="-4.51592">
        <ele>52.862</ele>
        <time>2009-05-01T10:31:30Z</time>
      </trkpt>
      <trkpt lat="48.21608" lon="-4.51575">
        <ele>55.271</ele>
        <time>2009-05-01T10:31:45Z</time>
      </trkpt>
      <trkpt lat="48.21596" lon="-4.51559">
        <ele>54.396</ele>
        <time>2009-05-01T10:32:01Z</time>
      </trkpt>
      <trkpt lat="48.21586" lon="-4.5154">
        <ele>53.897</ele>
        <time>2009-05-01T10:32:15Z</time>
      </trkpt>
      <trkpt lat="48.21576" lon="-4.51526">
        <ele>55.301</ele>
        <time>2009-05-01T10:32:29Z</time>
      </trkpt>
      <trkpt lat="48.21568" lon="-4.5151">
        <ele>55.754</ele>
        <time>2009-05-01T10:32:43Z</time>
      </trkpt>
      <trkpt lat="48.21557" lon="-4.51492">
        <ele>56.223</ele>
        <time>2009-05-01T10:32:56Z</time>
      </trkpt>
      <trkpt lat="48.21557" lon="-4.5149">
        <ele>56.305</ele>
        <time>2009-05-01T10:32:58Z</time>
      </trkpt>
      <trkpt lat="48.21546" lon="-4.51475">
        <ele>57.231</ele>
        <time>2009-05-01T10:33:10Z</time>
      </trkpt>
      <trkpt lat="48.21537" lon="-4.51459">
        <ele>58.86</ele>
        <time>2009-05-01T10:33:22Z</time>
      </trkpt>
      <trkpt lat="48.21529" lon="-4.51452">
        <ele>58.394</ele>
        <time>2009-05-01T10:33:34Z</time>
      </trkpt>
      <trkpt lat="48.21526" lon="-4.51457">
        <ele>57.253</ele>
        <time>2009-05-01T10:33:37Z</time>
      </trkpt>
      <trkpt lat="48.21524" lon="-4.51467">
        <ele>56.868</ele>
        <time>2009-05-01T10:33:42Z</time>
      </trkpt>
      <trkpt lat="48.21517" lon="-4.51484">
        <ele>54.938</ele>
        <time>2009-05-01T10:33:52Z</time>
      </trkpt>
      <trkpt lat="48.21504" lon="-4.51493">
        <ele>54.971</ele>
        <time>2009-05-01T10:34:06Z</time>
      </trkpt>
      <trkpt lat="48.21492" lon="-4.51501">
        <ele>54.078</ele>
        <time>2009-05-01T10:34:21Z</time>
      </trkpt>
      <trkpt lat="48.21479" lon="-4.51509">
        <ele>54.64</ele>
        <time>2009-05-01T10:34:33Z</time>
      </trkpt>
      <trkpt lat="48.21476" lon="-4.5151">
        <ele>54.637</ele>
        <time>2009-05-01T10:34:37Z</time>
      </trkpt>
      <trkpt lat="48.21469" lon="-4.51514">
        <ele>55.605</ele>
        <time>2009-05-01T10:34:50Z</time>
      </trkpt>
      <trkpt lat="48.21459" lon="-4.51513">
        <ele>54.321</ele>
        <time>2009-05-01T10:35:02Z</time>
      </trkpt>
      <trkpt lat="48.21452" lon="-4.51513">
        <ele>53.358</ele>
        <time>2009-05-01T10:35:14Z</time>
      </trkpt>
      <trkpt lat="48.21441" lon="-4.51517">
        <ele>54.202</ele>
        <time>2009-05-01T10:35:25Z</time>
      </trkpt>
      <trkpt lat="48.2144" lon="-4.51517">
        <ele>54.321</ele>
        <time>2009-05-01T10:35:26Z</time>
      </trkpt>
      <trkpt lat="48.21438" lon="-4.51515">
        <ele>54.288</ele>
        <time>2009-05-01T10:35:28Z</time>
      </trkpt>
      <trkpt lat="48.21422" lon="-4.51507">
        <ele>57.092</ele>
        <time>2009-05-01T10:35:42Z</time>
      </trkpt>
      <trkpt lat="48.21418" lon="-4.51498">
        <ele>56.883</ele>
        <time>2009-05-01T10:35:53Z</time>
      </trkpt>
      <trkpt lat="48.21412" lon="-4.5149">
        <ele>56.73</ele>
        <time>2009-05-01T10:36:07Z</time>
      </trkpt>
      <trkpt lat="48.21404" lon="-4.51482">
        <ele>55.353</ele>
        <time>2009-05-01T10:36:19Z</time>
      </trkpt>
      <trkpt lat="48.21393" lon="-4.51479">
        <ele>57.184</ele>
        <time>2009-05-01T10:36:36Z</time>
      </trkpt>
      <trkpt lat="48.21383" lon="-4.51467">
        <ele>61.388</ele>
        <time>2009-05-01T10:36:51Z</time>
      </trkpt>
      <trkpt lat="48.21369" lon="-4.51462">
        <ele>65.464</ele>
        <time>2009-05-01T10:37:04Z</time>
      </trkpt>
      <trkpt lat="48.21363" lon="-4.51466">
        <ele>65.322</ele>
        <time>2009-05-01T10:37:08Z</time>
      </trkpt>
      <trkpt lat="48.21342" lon="-4.51471">
        <ele>65.762</ele>
        <time>2009-05-01T10:37:25Z</time>
      </trkpt>
      <trkpt lat="48.21321" lon="-4.51473">
        <ele>65.157</ele>
        <time>2009-05-01T10:37:41Z</time>
      </trkpt>
      <trkpt lat="48.2131" lon="-4.51465">
        <ele>63.824</ele>
        <time>2009-05-01T10:37:53Z</time>
      </trkpt>
      <trkpt lat="48.21302" lon="-4.5146">
        <ele>62.804</ele>
        <time>2009-05-01T10:38:01Z</time>
      </trkpt>
      <trkpt lat="48.21292" lon="-4.51454">
        <ele>62.295</ele>
        <time>2009-05-01T10:38:09Z</time>
      </trkpt>
      <trkpt lat="48.21292" lon="-4.51447">
        <ele>62.567</ele>
        <time>2009-05-01T10:38:17Z</time>
      </trkpt>
      <trkpt lat="48.21298" lon="-4.51435">
        <ele>63.428</ele>
        <time>2009-05-01T10:38:25Z</time>
      </trkpt>
      <trkpt lat="48.213" lon="-4.51428">
        <ele>64.792</ele>
        <time>2009-05-01T10:38:29Z</time>
      </trkpt>
      <trkpt lat="48.21309" lon="-4.51401">
        <ele>69.506</ele>
        <time>2009-05-01T10:38:46Z</time>
      </trkpt>
      <trkpt lat="48.21314" lon="-4.51391">
        <ele>69.544</ele>
        <time>2009-05-01T10:38:59Z</time>
      </trkpt>
      <trkpt lat="48.21313" lon="-4.51391">
        <ele>69.433</ele>
        <time>2009-05-01T10:39:04Z</time>
      </trkpt>
      <trkpt lat="48.21299" lon="-4.51374">
        <ele>69.202</ele>
        <time>2009-05-01T10:39:18Z</time>
      </trkpt>
      <trkpt lat="48.21299" lon="-4.51371">
        <ele>70.031</ele>
        <time>2009-05-01T10:39:33Z</time>
      </trkpt>
      <trkpt lat="48.21309" lon="-4.51361">
        <ele>71.213</ele>
        <time>2009-05-01T10:39:44Z</time>
      </trkpt>
      <trkpt lat="48.21313" lon="-4.51354">
        <ele>72.973</ele>
        <time>2009-05-01T10:39:54Z</time>
      </trkpt>
      <trkpt lat="48.2132" lon="-4.51344">
        <ele>73.75</ele>
        <time>2009-05-01T10:40:05Z</time>
      </trkpt>
      <trkpt lat="48.21322" lon="-4.5134">
        <ele>73.984</ele>
        <time>2009-05-01T10:40:08Z</time>
      </trkpt>
      <trkpt lat="48.2133" lon="-4.5133">
        <ele>73.121</ele>
        <time>2009-05-01T10:40:18Z</time>
      </trkpt>
      <trkpt lat="48.21334" lon="-4.51325">
        <ele>73.728</ele>
        <time>2009-05-01T10:40:21Z</time>
      </trkpt>
      <trkpt lat="48.21347" lon="-4.51316">
        <ele>76.693</ele>
        <time>2009-05-01T10:40:37Z</time>
      </trkpt>
      <trkpt lat="48.21362" lon="-4.51305">
        <ele>77.434</ele>
        <time>2009-05-01T10:40:49Z</time>
      </trkpt>
      <trkpt lat="48.2137" lon="-4.513">
        <ele>78.683</ele>
        <time>2009-05-01T10:41:00Z</time>
      </trkpt>
      <trkpt lat="48.21372" lon="-4.51286">
        <ele>78.497</ele>
        <time>2009-05-01T10:41:14Z</time>
      </trkpt>
      <trkpt lat="48.21372" lon="-4.51266">
        <ele>78.454</ele>
        <time>2009-05-01T10:41:27Z</time>
      </trkpt>
      <trkpt lat="48.21375" lon="-4.5125">
        <ele>78.646</ele>
        <time>2009-05-01T10:41:40Z</time>
      </trkpt>
      <trkpt lat="48.21377" lon="-4.51243">
        <ele>79.284</ele>
        <time>2009-05-01T10:41:44Z</time>
      </trkpt>
      <trkpt lat="48.2138" lon="-4.51224">
        <ele>80.914</ele>
        <time>2009-05-01T10:41:58Z</time>
      </trkpt>
      <trkpt lat="48.21382" lon="-4.5122">
        <ele>81.029</ele>
        <time>2009-05-01T10:42:01Z</time>
      </trkpt>
      <trkpt lat="48.2139" lon="-4.51196">
        <ele>80.986</ele>
        <time>2009-05-01T10:42:15Z</time>
      </trkpt>
      <trkpt lat="48.21392" lon="-4.51192">
        <ele>79.771</ele>
        <time>2009-05-01T10:42:17Z</time>
      </trkpt>
      <trkpt lat="48.21387" lon="-4.51167">
        <ele>81.702</ele>
        <time>2009-05-01T10:42:31Z</time>
      </trkpt>
      <trkpt lat="48.21384" lon="-4.51158">
        <ele>83.487</ele>
        <time>2009-05-01T10:42:38Z</time>
      </trkpt>
      <trkpt lat="48.21381" lon="-4.51146">
        <ele>83.862</ele>
        <time>2009-05-01T10:42:47Z</time>
      </trkpt>
      <trkpt lat="48.2138" lon="-4.51133">
        <ele>85.101</ele>
        <time>2009-05-01T10:42:54Z</time>
      </trkpt>
      <trkpt lat="48.21377" lon="-4.51125">
        <ele>86.775</ele>
        <time>2009-05-01T10:43:00Z</time>
      </trkpt>
      <trkpt lat="48.21377" lon="-4.5112">
        <ele>85.415</ele>
        <time>2009-05-01T10:43:16Z</time>
      </trkpt>
      <trkpt lat="48.21365" lon="-4.51107">
        <ele>85.215</ele>
        <time>2009-05-01T10:43:29Z</time>
      </trkpt>
      <trkpt lat="48.21354" lon="-4.51088">
        <ele>84.872</ele>
        <time>2009-05-01T10:43:42Z</time>
      </trkpt>
      <trkpt lat="48.21345" lon="-4.51076">
        <ele>85.403</ele>
        <time>2009-05-01T10:43:52Z</time>
      </trkpt>
      <trkpt lat="48.21336" lon="-4.51069">
        <ele>83.813</ele>
        <time>2009-05-01T10:44:04Z</time>
      </trkpt>
      <trkpt lat="48.21324" lon="-4.51062">
        <ele>85.483</ele>
        <time>2009-05-01T10:44:18Z</time>
      </trkpt>
      <trkpt lat="48.21305" lon="-4.51046">
        <ele>88.445</ele>
        <time>2009-05-01T10:44:37Z</time>
      </trkpt>
      <trkpt lat="48.21294" lon="-4.51038">
        <ele>90.1</ele>
        <time>2009-05-01T10:44:50Z</time>
      </trkpt>
      <trkpt lat="48.21294" lon="-4.51037">
        <ele>91.322</ele>
        <time>2009-05-01T10:45:29Z</time>
      </trkpt>
      <trkpt lat="48.21299" lon="-4.51028">
        <ele>88.517</ele>
        <time>2009-05-01T10:45:36Z</time>
      </trkpt>
      <trkpt lat="48.21307" lon="-4.51017">
        <ele>85.037</ele>
        <time>2009-05-01T10:45:48Z</time>
      </trkpt>
      <trkpt lat="48.21311" lon="-4.51014">
        <ele>85.521</ele>
        <time>2009-05-01T10:46:01Z</time>
      </trkpt>
      <trkpt lat="48.21316" lon="-4.51002">
        <ele>86.051</ele>
        <time>2009-05-01T10:46:16Z</time>
      </trkpt>
      <trkpt lat="48.21321" lon="-4.50994">
        <ele>86.651</ele>
        <time>2009-05-01T10:46:31Z</time>
      </trkpt>
      <trkpt lat="48.21325" lon="-4.50976">
        <ele>87.048</ele>
        <time>2009-05-01T10:46:44Z</time>
      </trkpt>
      <trkpt lat="48.21333" lon="-4.50963">
        <ele>91.139</ele>
        <time>2009-05-01T10:46:54Z</time>
      </trkpt>
      <trkpt lat="48.21344" lon="-4.50946">
        <ele>92.983</ele>
        <time>2009-05-01T10:47:08Z</time>
      </trkpt>
      <trkpt lat="48.21352" lon="-4.50934">
        <ele>97.265</ele>
        <time>2009-05-01T10:47:24Z</time>
      </trkpt>
      <trkpt lat="48.21354" lon="-4.50928">
        <ele>99.08</ele>
        <time>2009-05-01T10:47:28Z</time>
      </trkpt>
      <trkpt lat="48.2136" lon="-4.50917">
        <ele>98.32</ele>
        <time>2009-05-01T10:47:34Z</time>
      </trkpt>
      <trkpt lat="48.21364" lon="-4.50906">
        <ele>99.252</ele>
        <time>2009-05-01T10:47:45Z</time>
      </trkpt>
      <trkpt lat="48.21369" lon="-4.50886">
        <ele>94.449</ele>
        <time>2009-05-01T10:47:58Z</time>
      </trkpt>
      <trkpt lat="48.21378" lon="-4.50868">
        <ele>93.829</ele>
        <time>2009-05-01T10:48:12Z</time>
      </trkpt>
      <trkpt lat="48.21377" lon="-4.50859">
        <ele>94.033</ele>
        <time>2009-05-01T10:48:18Z</time>
      </trkpt>
      <trkpt lat="48.21376" lon="-4.5085">
        <ele>92.235</ele>
        <time>2009-05-01T10:48:32Z</time>
      </trkpt>
      <trkpt lat="48.21377" lon="-4.50848">
        <ele>90.824</ele>
        <time>2009-05-01T10:48:53Z</time>
      </trkpt>
      <trkpt lat="48.21382" lon="-4.50847">
        <ele>90.776</ele>
        <time>2009-05-01T10:49:42Z</time>
      </trkpt>
      <trkpt lat="48.21393" lon="-4.50845">
        <ele>89.445</ele>
        <time>2009-05-01T10:49:58Z</time>
      </trkpt>
      <trkpt lat="48.21399" lon="-4.50831">
        <ele>92.375</ele>
        <time>2009-05-01T10:50:13Z</time>
      </trkpt>
      <trkpt lat="48.214" lon="-4.50827">
        <ele>93.15</ele>
        <time>2009-05-01T10:50:22Z</time>
      </trkpt>
      <trkpt lat="48.21403" lon="-4.50812">
        <ele>97.007</ele>
        <time>2009-05-01T10:50:38Z</time>
      </trkpt>
      <trkpt lat="48.21412" lon="-4.50818">
        <ele>95.221</ele>
        <time>2009-05-01T10:52:55Z</time>
      </trkpt>
      <trkpt lat="48.21421" lon="-4.50815">
        <ele>93.101</ele>
        <time>2009-05-01T10:53:11Z</time>
      </trkpt>
      <trkpt lat="48.21429" lon="-4.50809">
        <ele>92.217</ele>
        <time>2009-05-01T10:53:21Z</time>
      </trkpt>
      <trkpt lat="48.21437" lon="-4.50795">
        <ele>91.987</ele>
        <time>2009-05-01T10:53:33Z</time>
      </trkpt>
      <trkpt lat="48.21447" lon="-4.50785">
        <ele>91.096</ele>
        <time>2009-05-01T10:53:45Z</time>
      </trkpt>
      <trkpt lat="48.21455" lon="-4.50769">
        <ele>89.777</ele>
        <time>2009-05-01T10:53:58Z</time>
      </trkpt>
      <trkpt lat="48.21458" lon="-4.50764">
        <ele>90.339</ele>
        <time>2009-05-01T10:54:02Z</time>
      </trkpt>
      <trkpt lat="48.21466" lon="-4.50753">
        <ele>89.428</ele>
        <time>2009-05-01T10:54:16Z</time>
      </trkpt>
      <trkpt lat="48.21476" lon="-4.50734">
        <ele>87.46</ele>
        <time>2009-05-01T10:54:30Z</time>
      </trkpt>
      <trkpt lat="48.21477" lon="-4.50728">
        <ele>86.851</ele>
        <time>2009-05-01T10:54:34Z</time>
      </trkpt>
      <trkpt lat="48.21479" lon="-4.50723">
        <ele>86.643</ele>
        <time>2009-05-01T10:54:39Z</time>
      </trkpt>
      <trkpt lat="48.2149" lon="-4.50707">
        <ele>87.841</ele>
        <time>2009-05-01T10:54:52Z</time>
      </trkpt>
      <trkpt lat="48.21494" lon="-4.50701">
        <ele>87.501</ele>
        <time>2009-05-01T10:54:58Z</time>
      </trkpt>
      <trkpt lat="48.21502" lon="-4.50696">
        <ele>87.721</ele>
        <time>2009-05-01T10:55:09Z</time>
      </trkpt>
      <trkpt lat="48.21512" lon="-4.50683">
        <ele>86.606</ele>
        <time>2009-05-01T10:55:23Z</time>
      </trkpt>
      <trkpt lat="48.2152" lon="-4.50674">
        <ele>88.337</ele>
        <time>2009-05-01T10:55:35Z</time>
      </trkpt>
      <trkpt lat="48.21519" lon="-4.50665">
        <ele>88.988</ele>
        <time>2009-05-01T10:55:48Z</time>
      </trkpt>
      <trkpt lat="48.21524" lon="-4.50655">
        <ele>88.795</ele>
        <time>2009-05-01T10:55:55Z</time>
      </trkpt>
      <trkpt lat="48.21526" lon="-4.50641">
        <ele>88.446</ele>
        <time>2009-05-01T10:56:09Z</time>
      </trkpt>
      <trkpt lat="48.21521" lon="-4.50636">
        <ele>86.257</ele>
        <time>2009-05-01T10:56:27Z</time>
      </trkpt>
      <trkpt lat="48.2152" lon="-4.50632">
        <ele>86.068</ele>
        <time>2009-05-01T10:56:43Z</time>
      </trkpt>
      <trkpt lat="48.21526" lon="-4.50637">
        <ele>88.672</ele>
        <time>2009-05-01T10:56:57Z</time>
      </trkpt>
      <trkpt lat="48.2153" lon="-4.50646">
        <ele>90.419</ele>
        <time>2009-05-01T10:57:10Z</time>
      </trkpt>
      <trkpt lat="48.21525" lon="-4.50665">
        <ele>90.273</ele>
        <time>2009-05-01T10:57:29Z</time>
      </trkpt>
      <trkpt lat="48.21523" lon="-4.50675">
        <ele>91.171</ele>
        <time>2009-05-01T10:57:42Z</time>
      </trkpt>
      <trkpt lat="48.21513" lon="-4.50686">
        <ele>92.621</ele>
        <time>2009-05-01T10:57:55Z</time>
      </trkpt>
      <trkpt lat="48.21505" lon="-4.50694">
        <ele>92.278</ele>
        <time>2009-05-01T10:58:02Z</time>
      </trkpt>
      <trkpt lat="48.21497" lon="-4.507">
        <ele>92.103</ele>
        <time>2009-05-01T10:58:15Z</time>
      </trkpt>
      <trkpt lat="48.21488" lon="-4.50713">
        <ele>93.409</ele>
        <time>2009-05-01T10:58:29Z</time>
      </trkpt>
      <trkpt lat="48.21482" lon="-4.50721">
        <ele>93.875</ele>
        <time>2009-05-01T10:58:36Z</time>
      </trkpt>
      <trkpt lat="48.21476" lon="-4.50738">
        <ele>97.848</ele>
        <time>2009-05-01T10:58:51Z</time>
      </trkpt>
      <trkpt lat="48.21466" lon="-4.50761">
        <ele>99.09</ele>
        <time>2009-05-01T10:59:10Z</time>
      </trkpt>
      <trkpt lat="48.21466" lon="-4.50762">
        <ele>98.869</ele>
        <time>2009-05-01T10:59:12Z</time>
      </trkpt>
      <trkpt lat="48.21455" lon="-4.5078">
        <ele>98.251</ele>
        <time>2009-05-01T10:59:27Z</time>
      </trkpt>
      <trkpt lat="48.21452" lon="-4.50783">
        <ele>97.304</ele>
        <time>2009-05-01T10:59:29Z</time>
      </trkpt>
      <trkpt lat="48.21448" lon="-4.50785">
        <ele>97.636</ele>
        <time>2009-05-01T10:59:32Z</time>
      </trkpt>
      <trkpt lat="48.2144" lon="-4.50797">
        <ele>96.967</ele>
        <time>2009-05-01T10:59:45Z</time>
      </trkpt>
      <trkpt lat="48.21431" lon="-4.50812">
        <ele>95.587</ele>
        <time>2009-05-01T10:59:57Z</time>
      </trkpt>
      <trkpt lat="48.21417" lon="-4.50821">
        <ele>94.407</ele>
        <time>2009-05-01T11:00:11Z</time>
      </trkpt>
      <trkpt lat="48.2141" lon="-4.50827">
        <ele>95.471</ele>
        <time>2009-05-01T11:00:22Z</time>
      </trkpt>
      <trkpt lat="48.21399" lon="-4.50844">
        <ele>98.315</ele>
        <time>2009-05-01T11:00:39Z</time>
      </trkpt>
      <trkpt lat="48.21388" lon="-4.50853">
        <ele>98.335</ele>
        <time>2009-05-01T11:00:53Z</time>
      </trkpt>
      <trkpt lat="48.21383" lon="-4.50866">
        <ele>99.333</ele>
        <time>2009-05-01T11:01:04Z</time>
      </trkpt>
      <trkpt lat="48.2138" lon="-4.5087">
        <ele>98.565</ele>
        <time>2009-05-01T11:01:19Z</time>
      </trkpt>
      <trkpt lat="48.2137" lon="-4.50886">
        <ele>96.899</ele>
        <time>2009-05-01T11:01:33Z</time>
      </trkpt>
      <trkpt lat="48.21365" lon="-4.50907">
        <ele>96.019</ele>
        <time>2009-05-01T11:01:50Z</time>
      </trkpt>
      <trkpt lat="48.21359" lon="-4.50921">
        <ele>96.629</ele>
        <time>2009-05-01T11:02:04Z</time>
      </trkpt>
      <trkpt lat="48.21354" lon="-4.50934">
        <ele>95.699</ele>
        <time>2009-05-01T11:02:21Z</time>
      </trkpt>
      <trkpt lat="48.2135" lon="-4.50941">
        <ele>96.351</ele>
        <time>2009-05-01T11:02:26Z</time>
      </trkpt>
      <trkpt lat="48.21346" lon="-4.50949">
        <ele>95.021</ele>
        <time>2009-05-01T11:02:30Z</time>
      </trkpt>
      <trkpt lat="48.21334" lon="-4.50967">
        <ele>93.779</ele>
        <time>2009-05-01T11:02:45Z</time>
      </trkpt>
      <trkpt lat="48.21326" lon="-4.50982">
        <ele>97.03</ele>
        <time>2009-05-01T11:02:59Z</time>
      </trkpt>
      <trkpt lat="48.21313" lon="-4.51001">
        <ele>96.063</ele>
        <time>2009-05-01T11:03:17Z</time>
      </trkpt>
      <trkpt lat="48.21312" lon="-4.51001">
        <ele>96.305</ele>
        <time>2009-05-01T11:03:18Z</time>
      </trkpt>
      <trkpt lat="48.21302" lon="-4.51011">
        <ele>96.765</ele>
        <time>2009-05-01T11:03:33Z</time>
      </trkpt>
      <trkpt lat="48.21293" lon="-4.51028">
        <ele>95.187</ele>
        <time>2009-05-01T11:03:47Z</time>
      </trkpt>
      <trkpt lat="48.21279" lon="-4.51048">
        <ele>93.318</ele>
        <time>2009-05-01T11:04:03Z</time>
      </trkpt>
      <trkpt lat="48.21279" lon="-4.51057">
        <ele>91.947</ele>
        <time>2009-05-01T11:04:16Z</time>
      </trkpt>
      <trkpt lat="48.21269" lon="-4.51074">
        <ele>88.396</ele>
        <time>2009-05-01T11:04:36Z</time>
      </trkpt>
      <trkpt lat="48.21244" lon="-4.51093">
        <ele>86.227</ele>
        <time>2009-05-01T11:04:52Z</time>
      </trkpt>
      <trkpt lat="48.21231" lon="-4.51106">
        <ele>86.573</ele>
        <time>2009-05-01T11:05:08Z</time>
      </trkpt>
      <trkpt lat="48.21216" lon="-4.51121">
        <ele>83.143</ele>
        <time>2009-05-01T11:05:21Z</time>
      </trkpt>
      <trkpt lat="48.21207" lon="-4.5113">
        <ele>80.051</ele>
        <time>2009-05-01T11:05:30Z</time>
      </trkpt>
      <trkpt lat="48.21198" lon="-4.51139">
        <ele>81.316</ele>
        <time>2009-05-01T11:05:42Z</time>
      </trkpt>
      <trkpt lat="48.21196" lon="-4.5114">
        <ele>79.889</ele>
        <time>2009-05-01T11:05:45Z</time>
      </trkpt>
      <trkpt lat="48.21184" lon="-4.51147">
        <ele>77.199</ele>
        <time>2009-05-01T11:05:58Z</time>
      </trkpt>
      <trkpt lat="48.2117" lon="-4.51159">
        <ele>75.783</ele>
        <time>2009-05-01T11:06:11Z</time>
      </trkpt>
      <trkpt lat="48.2116" lon="-4.51171">
        <ele>76.688</ele>
        <time>2009-05-01T11:06:23Z</time>
      </trkpt>
      <trkpt lat="48.21147" lon="-4.51178">
        <ele>76.853</ele>
        <time>2009-05-01T11:06:37Z</time>
      </trkpt>
      <trkpt lat="48.21139" lon="-4.51184">
        <ele>75.697</ele>
        <time>2009-05-01T11:06:45Z</time>
      </trkpt>
      <trkpt lat="48.21129" lon="-4.51189">
        <ele>76.345</ele>
        <time>2009-05-01T11:06:57Z</time>
      </trkpt>
      <trkpt lat="48.21128" lon="-4.51189">
        <ele>76.62</ele>
        <time>2009-05-01T11:06:58Z</time>
      </trkpt>
      <trkpt lat="48.21125" lon="-4.5119">
        <ele>77.093</ele>
        <time>2009-05-01T11:07:02Z</time>
      </trkpt>
      <trkpt lat="48.2112" lon="-4.51193">
        <ele>78.119</ele>
        <time>2009-05-01T11:07:06Z</time>
      </trkpt>
      <trkpt lat="48.21109" lon="-4.51202">
        <ele>80.061</ele>
        <time>2009-05-01T11:07:19Z</time>
      </trkpt>
      <trkpt lat="48.21099" lon="-4.5121">
        <ele>79.259</ele>
        <time>2009-05-01T11:07:30Z</time>
      </trkpt>
      <trkpt lat="48.21094" lon="-4.5121">
        <ele>78.999</ele>
        <time>2009-05-01T11:07:37Z</time>
      </trkpt>
      <trkpt lat="48.21082" lon="-4.51217">
        <ele>78.458</ele>
        <time>2009-05-01T11:07:49Z</time>
      </trkpt>
      <trkpt lat="48.21072" lon="-4.51226">
        <ele>80.913</ele>
        <time>2009-05-01T11:08:03Z</time>
      </trkpt>
      <trkpt lat="48.21069" lon="-4.51228">
        <ele>79.928</ele>
        <time>2009-05-01T11:08:06Z</time>
      </trkpt>
      <trkpt lat="48.21059" lon="-4.51232">
        <ele>80.295</ele>
        <time>2009-05-01T11:08:18Z</time>
      </trkpt>
      <trkpt lat="48.21059" lon="-4.5123">
        <ele>79.804</ele>
        <time>2009-05-01T11:08:35Z</time>
      </trkpt>
      <trkpt lat="48.21048" lon="-4.51237">
        <ele>79.739</ele>
        <time>2009-05-01T11:08:49Z</time>
      </trkpt>
      <trkpt lat="48.21036" lon="-4.5124">
        <ele>78.042</ele>
        <time>2009-05-01T11:08:59Z</time>
      </trkpt>
      <trkpt lat="48.21023" lon="-4.51242">
        <ele>76.32</ele>
        <time>2009-05-01T11:09:10Z</time>
      </trkpt>
      <trkpt lat="48.21022" lon="-4.5124">
        <ele>77.729</ele>
        <time>2009-05-01T11:09:12Z</time>
      </trkpt>
      <trkpt lat="48.21016" lon="-4.51242">
        <ele>78.161</ele>
        <time>2009-05-01T11:09:27Z</time>
      </trkpt>
      <trkpt lat="48.21017" lon="-4.5124">
        <ele>78.022</ele>
        <time>2009-05-01T11:10:00Z</time>
      </trkpt>
      <trkpt lat="48.21006" lon="-4.51241">
        <ele>76.47</ele>
        <time>2009-05-01T11:10:18Z</time>
      </trkpt>
      <trkpt lat="48.21003" lon="-4.51241">
        <ele>77.048</ele>
        <time>2009-05-01T11:10:20Z</time>
      </trkpt>
      <trkpt lat="48.20995" lon="-4.51241">
        <ele>76.45</ele>
        <time>2009-05-01T11:10:33Z</time>
      </trkpt>
      <trkpt lat="48.20986" lon="-4.51243">
        <ele>77.182</ele>
        <time>2009-05-01T11:10:47Z</time>
      </trkpt>
      <trkpt lat="48.20981" lon="-4.51245">
        <ele>77.505</ele>
        <time>2009-05-01T11:10:52Z</time>
      </trkpt>
      <trkpt lat="48.20973" lon="-4.51251">
        <ele>78.089</ele>
        <time>2009-05-01T11:11:06Z</time>
      </trkpt>
      <trkpt lat="48.20969" lon="-4.51253">
        <ele>78.033</ele>
        <time>2009-05-01T11:11:11Z</time>
      </trkpt>
      <trkpt lat="48.20958" lon="-4.51254">
        <ele>78.108</ele>
        <time>2009-05-01T11:11:24Z</time>
      </trkpt>
      <trkpt lat="48.20945" lon="-4.51254">
        <ele>79.362</ele>
        <time>2009-05-01T11:11:36Z</time>
      </trkpt>
      <trkpt lat="48.20934" lon="-4.51255">
        <ele>78.461</ele>
        <time>2009-05-01T11:11:46Z</time>
      </trkpt>
      <trkpt lat="48.2093" lon="-4.51244">
        <ele>79.206</ele>
        <time>2009-05-01T11:12:03Z</time>
      </trkpt>
      <trkpt lat="48.2093" lon="-4.51244">
        <ele>79.313</ele>
        <time>2009-05-01T11:12:35Z</time>
      </trkpt>
      <trkpt lat="48.20931" lon="-4.5124">
        <ele>78.293</ele>
        <time>2009-05-01T11:12:54Z</time>
      </trkpt>
      <trkpt lat="48.2093" lon="-4.51237">
        <ele>77.987</ele>
        <time>2009-05-01T11:12:56Z</time>
      </trkpt>
      <trkpt lat="48.20929" lon="-4.51227">
        <ele>75.592</ele>
        <time>2009-05-01T11:13:16Z</time>
      </trkpt>
      <trkpt lat="48.20929" lon="-4.5122">
        <ele>76.475</ele>
        <time>2009-05-01T11:13:30Z</time>
      </trkpt>
      <trkpt lat="48.20927" lon="-4.51207">
        <ele>78.026</ele>
        <time>2009-05-01T11:13:47Z</time>
      </trkpt>
      <trkpt lat="48.20927" lon="-4.51204">
        <ele>78.374</ele>
        <time>2009-05-01T11:14:07Z</time>
      </trkpt>
      <trkpt lat="48.20929" lon="-4.51199">
        <ele>78.493</ele>
        <time>2009-05-01T11:14:42Z</time>
      </trkpt>
      <trkpt lat="48.20931" lon="-4.512">
        <ele>80.233</ele>
        <time>2009-05-01T11:15:13Z</time>
      </trkpt>
      <trkpt lat="48.20929" lon="-4.51201">
        <ele>81.159</ele>
        <time>2009-05-01T11:15:40Z</time>
      </trkpt>
      <trkpt lat="48.20929" lon="-4.51202">
        <ele>82.461</ele>
        <time>2009-05-01T11:16:19Z</time>
      </trkpt>
      <trkpt lat="48.20926" lon="-4.51206">
        <ele>84.992</ele>
        <time>2009-05-01T11:17:58Z</time>
      </trkpt>
      <trkpt lat="48.20927" lon="-4.51209">
        <ele>85.257</ele>
        <time>2009-05-01T11:20:50Z</time>
      </trkpt>
      <trkpt lat="48.20928" lon="-4.51215">
        <ele>84.728</ele>
        <time>2009-05-01T11:22:21Z</time>
      </trkpt>
      <trkpt lat="48.20931" lon="-4.51225">
        <ele>83.835</ele>
        <time>2009-05-01T11:22:33Z</time>
      </trkpt>
      <trkpt lat="48.20929" lon="-4.51232">
        <ele>81.827</ele>
        <time>2009-05-01T11:22:39Z</time>
      </trkpt>
      <trkpt lat="48.20925" lon="-4.51246">
        <ele>79.492</ele>
        <time>2009-05-01T11:22:52Z</time>
      </trkpt>
      <trkpt lat="48.20921" lon="-4.51253">
        <ele>78.251</ele>
        <time>2009-05-01T11:23:05Z</time>
      </trkpt>
      <trkpt lat="48.20919" lon="-4.51256">
        <ele>76.713</ele>
        <time>2009-05-01T11:23:27Z</time>
      </trkpt>
      <trkpt lat="48.20917" lon="-4.51274">
        <ele>76.887</ele>
        <time>2009-05-01T11:23:41Z</time>
      </trkpt>
      <trkpt lat="48.20916" lon="-4.51277">
        <ele>75.963</ele>
        <time>2009-05-01T11:23:44Z</time>
      </trkpt>
      <trkpt lat="48.20909" lon="-4.51294">
        <ele>76.994</ele>
        <time>2009-05-01T11:23:59Z</time>
      </trkpt>
      <trkpt lat="48.20906" lon="-4.513">
        <ele>76.478</ele>
        <time>2009-05-01T11:24:07Z</time>
      </trkpt>
      <trkpt lat="48.20894" lon="-4.51317">
        <ele>73.159</ele>
        <time>2009-05-01T11:24:23Z</time>
      </trkpt>
      <trkpt lat="48.20882" lon="-4.5133">
        <ele>71.662</ele>
        <time>2009-05-01T11:24:37Z</time>
      </trkpt>
      <trkpt lat="48.20875" lon="-4.51344">
        <ele>72.461</ele>
        <time>2009-05-01T11:24:47Z</time>
      </trkpt>
      <trkpt lat="48.20873" lon="-4.51349">
        <ele>72.49</ele>
        <time>2009-05-01T11:24:51Z</time>
      </trkpt>
      <trkpt lat="48.20872" lon="-4.51351">
        <ele>71.912</ele>
        <time>2009-05-01T11:24:54Z</time>
      </trkpt>
      <trkpt lat="48.20864" lon="-4.51364">
        <ele>69.641</ele>
        <time>2009-05-01T11:25:08Z</time>
      </trkpt>
      <trkpt lat="48.20853" lon="-4.51373">
        <ele>70.179</ele>
        <time>2009-05-01T11:25:22Z</time>
      </trkpt>
      <trkpt lat="48.20846" lon="-4.51381">
        <ele>70.123</ele>
        <time>2009-05-01T11:25:34Z</time>
      </trkpt>
      <trkpt lat="48.20836" lon="-4.51381">
        <ele>67.196</ele>
        <time>2009-05-01T11:25:46Z</time>
      </trkpt>
      <trkpt lat="48.20825" lon="-4.51383">
        <ele>65.267</ele>
        <time>2009-05-01T11:26:01Z</time>
      </trkpt>
      <trkpt lat="48.20812" lon="-4.51383">
        <ele>64.545</ele>
        <time>2009-05-01T11:26:15Z</time>
      </trkpt>
      <trkpt lat="48.20801" lon="-4.5138">
        <ele>61.286</ele>
        <time>2009-05-01T11:26:27Z</time>
      </trkpt>
      <trkpt lat="48.20792" lon="-4.51379">
        <ele>61.381</ele>
        <time>2009-05-01T11:26:41Z</time>
      </trkpt>
      <trkpt lat="48.20786" lon="-4.51377">
        <ele>61.031</ele>
        <time>2009-05-01T11:26:56Z</time>
      </trkpt>
      <trkpt lat="48.20776" lon="-4.51373">
        <ele>58.857</ele>
        <time>2009-05-01T11:27:09Z</time>
      </trkpt>
      <trkpt lat="48.20768" lon="-4.51373">
        <ele>56.661</ele>
        <time>2009-05-01T11:27:23Z</time>
      </trkpt>
      <trkpt lat="48.20759" lon="-4.51366">
        <ele>56.388</ele>
        <time>2009-05-01T11:27:39Z</time>
      </trkpt>
      <trkpt lat="48.20757" lon="-4.51367">
        <ele>57.809</ele>
        <time>2009-05-01T11:27:53Z</time>
      </trkpt>
      <trkpt lat="48.20756" lon="-4.51369">
        <ele>55.251</ele>
        <time>2009-05-01T11:28:14Z</time>
      </trkpt>
      <trkpt lat="48.20761" lon="-4.51375">
        <ele>56.843</ele>
        <time>2009-05-01T11:29:22Z</time>
      </trkpt>
      <trkpt lat="48.20761" lon="-4.51389">
        <ele>54.553</ele>
        <time>2009-05-01T11:29:36Z</time>
      </trkpt>
      <trkpt lat="48.20758" lon="-4.51391">
        <ele>55.134</ele>
        <time>2009-05-01T11:29:56Z</time>
      </trkpt>
      <trkpt lat="48.20752" lon="-4.51393">
        <ele>53.178</ele>
        <time>2009-05-01T11:30:16Z</time>
      </trkpt>
      <trkpt lat="48.2075" lon="-4.51401">
        <ele>52.091</ele>
        <time>2009-05-01T11:30:33Z</time>
      </trkpt>
      <trkpt lat="48.20737" lon="-4.51402">
        <ele>51.257</ele>
        <time>2009-05-01T11:30:57Z</time>
      </trkpt>
      <trkpt lat="48.20724" lon="-4.51392">
        <ele>49.976</ele>
        <time>2009-05-01T11:31:15Z</time>
      </trkpt>
      <trkpt lat="48.20721" lon="-4.51388">
        <ele>50.101</ele>
        <time>2009-05-01T11:31:18Z</time>
      </trkpt>
      <trkpt lat="48.20718" lon="-4.51382">
        <ele>47.456</ele>
        <time>2009-05-01T11:31:29Z</time>
      </trkpt>
      <trkpt lat="48.20713" lon="-4.51385">
        <ele>40.696</ele>
        <time>2009-05-01T11:31:43Z</time>
      </trkpt>
      <trkpt lat="48.20709" lon="-4.51378">
        <ele>35.529</ele>
        <time>2009-05-01T11:32:02Z</time>
      </trkpt>
      <trkpt lat="48.20709" lon="-4.51384">
        <ele>32.19</ele>
        <time>2009-05-01T11:32:14Z</time>
      </trkpt>
      <trkpt lat="48.2071" lon="-4.51387">
        <ele>31.362</ele>
        <time>2009-05-01T11:32:16Z</time>
      </trkpt>
      <trkpt lat="48.20708" lon="-4.51391">
        <ele>28.49</ele>
        <time>2009-05-01T11:32:28Z</time>
      </trkpt>
      <trkpt lat="48.20703" lon="-4.51389">
        <ele>28.857</ele>
        <time>2009-05-01T11:32:43Z</time>
      </trkpt>
      <trkpt lat="48.20696" lon="-4.51398">
        <ele>30.099</ele>
        <time>2009-05-01T11:32:57Z</time>
      </trkpt>
      <trkpt lat="48.2069" lon="-4.5141">
        <ele>29.439</ele>
        <time>2009-05-01T11:33:13Z</time>
      </trkpt>
      <trkpt lat="48.20687" lon="-4.51421">
        <ele>30.103</ele>
        <time>2009-05-01T11:33:26Z</time>
      </trkpt>
      <trkpt lat="48.20684" lon="-4.51424">
        <ele>30.958</ele>
        <time>2009-05-01T11:33:52Z</time>
      </trkpt>
      <trkpt lat="48.20689" lon="-4.51432">
        <ele>31.331</ele>
        <time>2009-05-01T11:34:07Z</time>
      </trkpt>
      <trkpt lat="48.20689" lon="-4.5144">
        <ele>32.93</ele>
        <time>2009-05-01T11:34:22Z</time>
      </trkpt>
      <trkpt lat="48.20685" lon="-4.51454">
        <ele>35.267</ele>
        <time>2009-05-01T11:34:37Z</time>
      </trkpt>
      <trkpt lat="48.20682" lon="-4.51461">
        <ele>37.212</ele>
        <time>2009-05-01T11:34:44Z</time>
      </trkpt>
      <trkpt lat="48.20677" lon="-4.51465">
        <ele>37.667</ele>
        <time>2009-05-01T11:35:04Z</time>
      </trkpt>
      <trkpt lat="48.20671" lon="-4.51472">
        <ele>40.638</ele>
        <time>2009-05-01T11:35:19Z</time>
      </trkpt>
      <trkpt lat="48.2067" lon="-4.51483">
        <ele>41.048</ele>
        <time>2009-05-01T11:35:34Z</time>
      </trkpt>
      <trkpt lat="48.20673" lon="-4.51493">
        <ele>42.263</ele>
        <time>2009-05-01T11:35:47Z</time>
      </trkpt>
      <trkpt lat="48.20668" lon="-4.51499">
        <ele>44.15</ele>
        <time>2009-05-01T11:36:02Z</time>
      </trkpt>
      <trkpt lat="48.20667" lon="-4.515">
        <ele>44.152</ele>
        <time>2009-05-01T11:36:05Z</time>
      </trkpt>
      <trkpt lat="48.2066" lon="-4.51508">
        <ele>45.73</ele>
        <time>2009-05-01T11:36:18Z</time>
      </trkpt>
      <trkpt lat="48.20655" lon="-4.51509">
        <ele>46.443</ele>
        <time>2009-05-01T11:36:33Z</time>
      </trkpt>
      <trkpt lat="48.20653" lon="-4.51508">
        <ele>46.275</ele>
        <time>2009-05-01T11:36:36Z</time>
      </trkpt>
      <trkpt lat="48.20646" lon="-4.51515">
        <ele>48.419</ele>
        <time>2009-05-01T11:36:51Z</time>
      </trkpt>
      <trkpt lat="48.20641" lon="-4.51525">
        <ele>50.426</ele>
        <time>2009-05-01T11:37:06Z</time>
      </trkpt>
      <trkpt lat="48.20639" lon="-4.51531">
        <ele>53.818</ele>
        <time>2009-05-01T11:37:23Z</time>
      </trkpt>
      <trkpt lat="48.20639" lon="-4.51541">
        <ele>55.222</ele>
        <time>2009-05-01T11:37:38Z</time>
      </trkpt>
      <trkpt lat="48.20634" lon="-4.51551">
        <ele>57.317</ele>
        <time>2009-05-01T11:37:58Z</time>
      </trkpt>
      <trkpt lat="48.20629" lon="-4.51554">
        <ele>61.657</ele>
        <time>2009-05-01T11:38:07Z</time>
      </trkpt>
      <trkpt lat="48.20619" lon="-4.51559">
        <ele>66.73</ele>
        <time>2009-05-01T11:38:22Z</time>
      </trkpt>
      <trkpt lat="48.20617" lon="-4.51557">
        <ele>66.027</ele>
        <time>2009-05-01T11:38:40Z</time>
      </trkpt>
      <trkpt lat="48.20618" lon="-4.51554">
        <ele>65.859</ele>
        <time>2009-05-01T11:38:51Z</time>
      </trkpt>
      <trkpt lat="48.20621" lon="-4.51555">
        <ele>66.222</ele>
        <time>2009-05-01T11:40:44Z</time>
      </trkpt>
      <trkpt lat="48.20618" lon="-4.51566">
        <ele>66.431</ele>
        <time>2009-05-01T11:40:58Z</time>
      </trkpt>
      <trkpt lat="48.20617" lon="-4.51568">
        <ele>66.792</ele>
        <time>2009-05-01T11:41:00Z</time>
      </trkpt>
      <trkpt lat="48.20616" lon="-4.51575">
        <ele>67.549</ele>
        <time>2009-05-01T11:41:04Z</time>
      </trkpt>
      <trkpt lat="48.20612" lon="-4.5158">
        <ele>67.883</ele>
        <time>2009-05-01T11:41:10Z</time>
      </trkpt>
      <trkpt lat="48.20609" lon="-4.51582">
        <ele>67.099</ele>
        <time>2009-05-01T11:41:13Z</time>
      </trkpt>
      <trkpt lat="48.20604" lon="-4.5159">
        <ele>68.585</ele>
        <time>2009-05-01T11:41:28Z</time>
      </trkpt>
      <trkpt lat="48.20596" lon="-4.51592">
        <ele>67.81</ele>
        <time>2009-05-01T11:41:42Z</time>
      </trkpt>
      <trkpt lat="48.20593" lon="-4.51595">
        <ele>66.837</ele>
        <time>2009-05-01T11:42:01Z</time>
      </trkpt>
      <trkpt lat="48.20583" lon="-4.51606">
        <ele>68.929</ele>
        <time>2009-05-01T11:42:14Z</time>
      </trkpt>
      <trkpt lat="48.20573" lon="-4.51615">
        <ele>70.091</ele>
        <time>2009-05-01T11:42:26Z</time>
      </trkpt>
      <trkpt lat="48.20556" lon="-4.51615">
        <ele>68.996</ele>
        <time>2009-05-01T11:42:43Z</time>
      </trkpt>
      <trkpt lat="48.20542" lon="-4.51614">
        <ele>68.348</ele>
        <time>2009-05-01T11:42:58Z</time>
      </trkpt>
      <trkpt lat="48.20528" lon="-4.51613">
        <ele>66.114</ele>
        <time>2009-05-01T11:43:12Z</time>
      </trkpt>
      <trkpt lat="48.20517" lon="-4.51616">
        <ele>68.45</ele>
        <time>2009-05-01T11:43:25Z</time>
      </trkpt>
      <trkpt lat="48.20502" lon="-4.51615">
        <ele>67.976</ele>
        <time>2009-05-01T11:43:40Z</time>
      </trkpt>
      <trkpt lat="48.2049" lon="-4.51619">
        <ele>68.514</ele>
        <time>2009-05-01T11:43:53Z</time>
      </trkpt>
      <trkpt lat="48.2048" lon="-4.51627">
        <ele>71.318</ele>
        <time>2009-05-01T11:44:05Z</time>
      </trkpt>
      <trkpt lat="48.20471" lon="-4.51629">
        <ele>71.189</ele>
        <time>2009-05-01T11:44:20Z</time>
      </trkpt>
      <trkpt lat="48.20465" lon="-4.51625">
        <ele>69.284</ele>
        <time>2009-05-01T11:44:39Z</time>
      </trkpt>
      <trkpt lat="48.20457" lon="-4.51621">
        <ele>65.072</ele>
        <time>2009-05-01T11:44:54Z</time>
      </trkpt>
      <trkpt lat="48.20454" lon="-4.51618">
        <ele>65.783</ele>
        <time>2009-05-01T11:45:12Z</time>
      </trkpt>
      <trkpt lat="48.20443" lon="-4.51613">
        <ele>63.778</ele>
        <time>2009-05-01T11:45:27Z</time>
      </trkpt>
      <trkpt lat="48.2043" lon="-4.51604">
        <ele>61.627</ele>
        <time>2009-05-01T11:45:43Z</time>
      </trkpt>
      <trkpt lat="48.20425" lon="-4.51601">
        <ele>60.526</ele>
        <time>2009-05-01T11:45:48Z</time>
      </trkpt>
      <trkpt lat="48.20411" lon="-4.51602">
        <ele>58.036</ele>
        <time>2009-05-01T11:46:01Z</time>
      </trkpt>
      <trkpt lat="48.20395" lon="-4.51594">
        <ele>58.331</ele>
        <time>2009-05-01T11:46:17Z</time>
      </trkpt>
      <trkpt lat="48.20385" lon="-4.51592">
        <ele>57.797</ele>
        <time>2009-05-01T11:46:27Z</time>
      </trkpt>
      <trkpt lat="48.20375" lon="-4.51583">
        <ele>59.415</ele>
        <time>2009-05-01T11:46:44Z</time>
      </trkpt>
      <trkpt lat="48.20365" lon="-4.51576">
        <ele>62.134</ele>
        <time>2009-05-01T11:47:00Z</time>
      </trkpt>
      <trkpt lat="48.20351" lon="-4.51561">
        <ele>58.531</ele>
        <time>2009-05-01T11:47:17Z</time>
      </trkpt>
      <trkpt lat="48.20348" lon="-4.51557">
        <ele>56.211</ele>
        <time>2009-05-01T11:47:38Z</time>
      </trkpt>
      <trkpt lat="48.20342" lon="-4.51555">
        <ele>53.76</ele>
        <time>2009-05-01T11:47:56Z</time>
      </trkpt>
      <trkpt lat="48.20329" lon="-4.51549">
        <ele>50.304</ele>
        <time>2009-05-01T11:48:09Z</time>
      </trkpt>
      <trkpt lat="48.20326" lon="-4.51544">
        <ele>48.98</ele>
        <time>2009-05-01T11:48:13Z</time>
      </trkpt>
      <trkpt lat="48.20317" lon="-4.51542">
        <ele>48.445</ele>
        <time>2009-05-01T11:48:24Z</time>
      </trkpt>
      <trkpt lat="48.20302" lon="-4.51535">
        <ele>46.561</ele>
        <time>2009-05-01T11:48:37Z</time>
      </trkpt>
      <trkpt lat="48.20294" lon="-4.51531">
        <ele>46.106</ele>
        <time>2009-05-01T11:48:51Z</time>
      </trkpt>
      <trkpt lat="48.20278" lon="-4.51521">
        <ele>46.528</ele>
        <time>2009-05-01T11:49:05Z</time>
      </trkpt>
      <trkpt lat="48.20267" lon="-4.51514">
        <ele>49.174</ele>
        <time>2009-05-01T11:49:18Z</time>
      </trkpt>
      <trkpt lat="48.20264" lon="-4.51511">
        <ele>47.772</ele>
        <time>2009-05-01T11:49:23Z</time>
      </trkpt>
      <trkpt lat="48.2026" lon="-4.51507">
        <ele>46.866</ele>
        <time>2009-05-01T11:49:28Z</time>
      </trkpt>
      <trkpt lat="48.20253" lon="-4.51506">
        <ele>46.332</ele>
        <time>2009-05-01T11:49:33Z</time>
      </trkpt>
      <trkpt lat="48.20243" lon="-4.51501">
        <ele>46.319</ele>
        <time>2009-05-01T11:49:43Z</time>
      </trkpt>
      <trkpt lat="48.20239" lon="-4.51501">
        <ele>47.447</ele>
        <time>2009-05-01T11:49:47Z</time>
      </trkpt>
      <trkpt lat="48.20231" lon="-4.51495">
        <ele>45.268</ele>
        <time>2009-05-01T11:50:02Z</time>
      </trkpt>
      <trkpt lat="48.20219" lon="-4.51489">
        <ele>44.629</ele>
        <time>2009-05-01T11:50:17Z</time>
      </trkpt>
      <trkpt lat="48.20216" lon="-4.51486">
        <ele>44.742</ele>
        <time>2009-05-01T11:50:21Z</time>
      </trkpt>
      <trkpt lat="48.20201" lon="-4.51479">
        <ele>46.385</ele>
        <time>2009-05-01T11:50:34Z</time>
      </trkpt>
      <trkpt lat="48.20193" lon="-4.51476">
        <ele>45.931</ele>
        <time>2009-05-01T11:50:43Z</time>
      </trkpt>
      <trkpt lat="48.20188" lon="-4.51465">
        <ele>45.641</ele>
        <time>2009-05-01T11:50:55Z</time>
      </trkpt>
      <trkpt lat="48.20187" lon="-4.51464">
        <ele>45.939</ele>
        <time>2009-05-01T11:50:56Z</time>
      </trkpt>
      <trkpt lat="48.20174" lon="-4.51454">
        <ele>44.09</ele>
        <time>2009-05-01T11:51:11Z</time>
      </trkpt>
      <trkpt lat="48.20169" lon="-4.51449">
        <ele>46.58</ele>
        <time>2009-05-01T11:51:31Z</time>
      </trkpt>
      <trkpt lat="48.20158" lon="-4.51434">
        <ele>43.988</ele>
        <time>2009-05-01T11:51:47Z</time>
      </trkpt>
      <trkpt lat="48.20156" lon="-4.51432">
        <ele>42.468</ele>
        <time>2009-05-01T11:52:01Z</time>
      </trkpt>
      <trkpt lat="48.20151" lon="-4.51423">
        <ele>42.401</ele>
        <time>2009-05-01T11:52:21Z</time>
      </trkpt>
      <trkpt lat="48.20142" lon="-4.5142">
        <ele>40.166</ele>
        <time>2009-05-01T11:52:34Z</time>
      </trkpt>
      <trkpt lat="48.2014" lon="-4.51417">
        <ele>39.912</ele>
        <time>2009-05-01T11:53:10Z</time>
      </trkpt>
      <trkpt lat="48.20147" lon="-4.51403">
        <ele>38.452</ele>
        <time>2009-05-01T11:53:29Z</time>
      </trkpt>
      <trkpt lat="48.20154" lon="-4.51398">
        <ele>33.605</ele>
        <time>2009-05-01T11:53:43Z</time>
      </trkpt>
      <trkpt lat="48.20158" lon="-4.51395">
        <ele>30.637</ele>
        <time>2009-05-01T11:54:00Z</time>
      </trkpt>
      <trkpt lat="48.20162" lon="-4.51382">
        <ele>26.254</ele>
        <time>2009-05-01T11:54:15Z</time>
      </trkpt>
      <trkpt lat="48.20164" lon="-4.51373">
        <ele>22.429</ele>
        <time>2009-05-01T11:54:31Z</time>
      </trkpt>
      <trkpt lat="48.20164" lon="-4.51362">
        <ele>19.097</ele>
        <time>2009-05-01T11:54:45Z</time>
      </trkpt>
      <trkpt lat="48.20162" lon="-4.5136">
        <ele>18.644</ele>
        <time>2009-05-01T11:55:10Z</time>
      </trkpt>
      <trkpt lat="48.20163" lon="-4.51349">
        <ele>20.234</ele>
        <time>2009-05-01T11:55:33Z</time>
      </trkpt>
      <trkpt lat="48.20159" lon="-4.51343">
        <ele>17.238</ele>
        <time>2009-05-01T11:55:50Z</time>
      </trkpt>
      <trkpt lat="48.20153" lon="-4.51338">
        <ele>17.052</ele>
        <time>2009-05-01T11:56:03Z</time>
      </trkpt>
      <trkpt lat="48.2015" lon="-4.51338">
        <ele>16.947</ele>
        <time>2009-05-01T11:56:17Z</time>
      </trkpt>
      <trkpt lat="48.20149" lon="-4.51335">
        <ele>17.022</ele>
        <time>2009-05-01T11:56:22Z</time>
      </trkpt>
      <trkpt lat="48.20143" lon="-4.51307">
        <ele>18.078</ele>
        <time>2009-05-01T11:56:37Z</time>
      </trkpt>
      <trkpt lat="48.20144" lon="-4.51284">
        <ele>20.863</ele>
        <time>2009-05-01T11:56:54Z</time>
      </trkpt>
      <trkpt lat="48.20148" lon="-4.51271">
        <ele>22.051</ele>
        <time>2009-05-01T11:57:07Z</time>
      </trkpt>
      <trkpt lat="48.2015" lon="-4.51259">
        <ele>21.174</ele>
        <time>2009-05-01T11:57:23Z</time>
      </trkpt>
      <trkpt lat="48.20153" lon="-4.51259">
        <ele>17.697</ele>
        <time>2009-05-01T11:57:37Z</time>
      </trkpt>
      <trkpt lat="48.20149" lon="-4.51261">
        <ele>16.644</ele>
        <time>2009-05-01T11:57:51Z</time>
      </trkpt>
      <trkpt lat="48.20145" lon="-4.51244">
        <ele>16.309</ele>
        <time>2009-05-01T11:58:05Z</time>
      </trkpt>
      <trkpt lat="48.20145" lon="-4.51254">
        <ele>16.032</ele>
        <time>2009-05-01T11:58:22Z</time>
      </trkpt>
      <trkpt lat="48.20134" lon="-4.51261">
        <ele>20.267</ele>
        <time>2009-05-01T11:58:36Z</time>
      </trkpt>
      <trkpt lat="48.20132" lon="-4.5126">
        <ele>20.44</ele>
        <time>2009-05-01T11:58:38Z</time>
      </trkpt>
      <trkpt lat="48.20129" lon="-4.51253">
        <ele>21.367</ele>
        <time>2009-05-01T11:58:43Z</time>
      </trkpt>
      <trkpt lat="48.20135" lon="-4.51229">
        <ele>25.385</ele>
        <time>2009-05-01T11:58:59Z</time>
      </trkpt>
      <trkpt lat="48.20138" lon="-4.51231">
        <ele>24.101</ele>
        <time>2009-05-01T11:59:25Z</time>
      </trkpt>
      <trkpt lat="48.20141" lon="-4.5123">
        <ele>21.312</ele>
        <time>2009-05-01T11:59:41Z</time>
      </trkpt>
      <trkpt lat="48.20144" lon="-4.51222">
        <ele>21.745</ele>
        <time>2009-05-01T12:00:06Z</time>
      </trkpt>
      <trkpt lat="48.20148" lon="-4.51212">
        <ele>21.408</ele>
        <time>2009-05-01T12:00:19Z</time>
      </trkpt>
      <trkpt lat="48.20149" lon="-4.51206">
        <ele>21.702</ele>
        <time>2009-05-01T12:00:34Z</time>
      </trkpt>
      <trkpt lat="48.20149" lon="-4.51209">
        <ele>20.844</ele>
        <time>2009-05-01T12:00:54Z</time>
      </trkpt>
      <trkpt lat="48.20151" lon="-4.51209">
        <ele>18.135</ele>
        <time>2009-05-01T12:02:30Z</time>
      </trkpt>
      <trkpt lat="48.20148" lon="-4.5121">
        <ele>1.487</ele>
        <time>2009-05-01T12:07:43Z</time>
      </trkpt>
      <trkpt lat="48.2014" lon="-4.51223">
        <ele>5.628</ele>
        <time>2009-05-01T12:08:13Z</time>
      </trkpt>
      <trkpt lat="48.20153" lon="-4.51215">
        <ele>16.901</ele>
        <time>2009-05-01T12:10:12Z</time>
      </trkpt>
      <trkpt lat="48.20149" lon="-4.51223">
        <ele>24.382</ele>
        <time>2009-05-01T12:11:05Z</time>
      </trkpt>
      <trkpt lat="48.20151" lon="-4.51227">
        <ele>21.95</ele>
        <time>2009-05-01T12:16:14Z</time>
      </trkpt>
      <trkpt lat="48.20153" lon="-4.5121">
        <ele>16.789</ele>
        <time>2009-05-01T12:16:57Z</time>
      </trkpt>
      <trkpt lat="48.2014" lon="-4.51218">
        <ele>10.866</ele>
        <time>2009-05-01T12:17:53Z</time>
      </trkpt>
      <trkpt lat="48.20144" lon="-4.51226">
        <ele>14.744</ele>
        <time>2009-05-01T12:25:18Z</time>
      </trkpt>
      <trkpt lat="48.20137" lon="-4.51218">
        <ele>15.535</ele>
        <time>2009-05-01T12:25:46Z</time>
      </trkpt>
      <trkpt lat="48.20138" lon="-4.5123">
        <ele>16.616</ele>
        <time>2009-05-01T12:26:11Z</time>
      </trkpt>
      <trkpt lat="48.20144" lon="-4.51222">
        <ele>17.475</ele>
        <time>2009-05-01T12:27:30Z</time>
      </trkpt>
      <trkpt lat="48.20151" lon="-4.51205">
        <ele>-1.213</ele>
        <time>2009-05-01T12:30:08Z</time>
      </trkpt>
      <trkpt lat="48.20156" lon="-4.51206">
        <ele>-3.873</ele>
        <time>2009-05-01T12:30:44Z</time>
      </trkpt>
      <trkpt lat="48.20142" lon="-4.51199">
        <ele>-5.156</ele>
        <time>2009-05-01T12:31:18Z</time>
      </trkpt>
      <trkpt lat="48.20141" lon="-4.51202">
        <ele>-9.784</ele>
        <time>2009-05-01T12:32:24Z</time>
      </trkpt>
      <trkpt lat="48.20139" lon="-4.51208">
        <ele>-12.338</ele>
        <time>2009-05-01T12:33:29Z</time>
      </trkpt>
      <trkpt lat="48.20148" lon="-4.51208">
        <ele>4.643</ele>
        <time>2009-05-01T12:35:45Z</time>
      </trkpt>
      <trkpt lat="48.20157" lon="-4.51211">
        <ele>16.194</ele>
        <time>2009-05-01T12:36:39Z</time>
      </trkpt>
      <trkpt lat="48.20165" lon="-4.51208">
        <ele>19.655</ele>
        <time>2009-05-01T12:37:04Z</time>
      </trkpt>
      <trkpt lat="48.20159" lon="-4.51215">
        <ele>20.817</ele>
        <time>2009-05-01T12:37:29Z</time>
      </trkpt>
      <trkpt lat="48.20151" lon="-4.51208">
        <ele>12.475</ele>
        <time>2009-05-01T12:38:30Z</time>
      </trkpt>
      <trkpt lat="48.20143" lon="-4.51215">
        <ele>-0.141</ele>
        <time>2009-05-01T12:39:11Z</time>
      </trkpt>
      <trkpt lat="48.20136" lon="-4.51216">
        <ele>-15.554</ele>
        <time>2009-05-01T12:40:11Z</time>
      </trkpt>
      <trkpt lat="48.20137" lon="-4.51216">
        <ele>-10.693</ele>
        <time>2009-05-01T12:43:45Z</time>
      </trkpt>
      <trkpt lat="48.20144" lon="-4.51217">
        <ele>-3.786</ele>
        <time>2009-05-01T12:44:19Z</time>
      </trkpt>
      <trkpt lat="48.20147" lon="-4.51213">
        <ele>-2.515</ele>
        <time>2009-05-01T12:44:49Z</time>
      </trkpt>
      <trkpt lat="48.20155" lon="-4.51209">
        <ele>1.198</ele>
        <time>2009-05-01T12:45:30Z</time>
      </trkpt>
      <trkpt lat="48.20152" lon="-4.51211">
        <ele>1.373</ele>
        <time>2009-05-01T12:46:43Z</time>
      </trkpt>
      <trkpt lat="48.20145" lon="-4.51218">
        <ele>-0.473</ele>
        <time>2009-05-01T12:49:38Z</time>
      </trkpt>
      <trkpt lat="48.20139" lon="-4.51209">
        <ele>-2.776</ele>
        <time>2009-05-01T12:50:50Z</time>
      </trkpt>
      <trkpt lat="48.20141" lon="-4.51209">
        <ele>1.174</ele>
        <time>2009-05-01T12:51:24Z</time>
      </trkpt>
      <trkpt lat="48.20145" lon="-4.51216">
        <ele>12.663</ele>
        <time>2009-05-01T12:55:26Z</time>
      </trkpt>
      <trkpt lat="48.20143" lon="-4.51219">
        <ele>11.923</ele>
        <time>2009-05-01T12:55:37Z</time>
      </trkpt>
      <trkpt lat="48.20137" lon="-4.51227">
        <ele>11.364</ele>
        <time>2009-05-01T12:55:50Z</time>
      </trkpt>
      <trkpt lat="48.20135" lon="-4.51237">
        <ele>12.56</ele>
        <time>2009-05-01T12:56:04Z</time>
      </trkpt>
      <trkpt lat="48.20131" lon="-4.51241">
        <ele>13.431</ele>
        <time>2009-05-01T12:56:17Z</time>
      </trkpt>
      <trkpt lat="48.20125" lon="-4.5124">
        <ele>13.612</ele>
        <time>2009-05-01T12:56:33Z</time>
      </trkpt>
      <trkpt lat="48.20128" lon="-4.51246">
        <ele>14.225</ele>
        <time>2009-05-01T12:56:46Z</time>
      </trkpt>
      <trkpt lat="48.20126" lon="-4.5125">
        <ele>14.714</ele>
        <time>2009-05-01T12:57:02Z</time>
      </trkpt>
      <trkpt lat="48.2013" lon="-4.51262">
        <ele>14.246</ele>
        <time>2009-05-01T12:57:22Z</time>
      </trkpt>
      <trkpt lat="48.20133" lon="-4.51268">
        <ele>13.566</ele>
        <time>2009-05-01T12:57:37Z</time>
      </trkpt>
      <trkpt lat="48.20129" lon="-4.5128">
        <ele>15.546</ele>
        <time>2009-05-01T12:57:51Z</time>
      </trkpt>
      <trkpt lat="48.20128" lon="-4.51279">
        <ele>19.308</ele>
        <time>2009-05-01T12:58:15Z</time>
      </trkpt>
      <trkpt lat="48.20124" lon="-4.51288">
        <ele>18.057</ele>
        <time>2009-05-01T12:58:38Z</time>
      </trkpt>
      <trkpt lat="48.20116" lon="-4.51304">
        <ele>17.802</ele>
        <time>2009-05-01T12:58:54Z</time>
      </trkpt>
      <trkpt lat="48.20113" lon="-4.51312">
        <ele>20.101</ele>
        <time>2009-05-01T12:59:07Z</time>
      </trkpt>
      <trkpt lat="48.201" lon="-4.51319">
        <ele>21.987</ele>
        <time>2009-05-01T12:59:22Z</time>
      </trkpt>
      <trkpt lat="48.2009" lon="-4.5132">
        <ele>16.226</ele>
        <time>2009-05-01T12:59:36Z</time>
      </trkpt>
      <trkpt lat="48.20089" lon="-4.51321">
        <ele>13.235</ele>
        <time>2009-05-01T13:01:12Z</time>
      </trkpt>
      <trkpt lat="48.20091" lon="-4.51323">
        <ele>11.065</ele>
        <time>2009-05-01T13:01:27Z</time>
      </trkpt>
      <trkpt lat="48.20099" lon="-4.51321">
        <ele>9.664</ele>
        <time>2009-05-01T13:01:39Z</time>
      </trkpt>
      <trkpt lat="48.201" lon="-4.5132">
        <ele>9.512</ele>
        <time>2009-05-01T13:01:40Z</time>
      </trkpt>
      <trkpt lat="48.20104" lon="-4.51316">
        <ele>10.606</ele>
        <time>2009-05-01T13:01:47Z</time>
      </trkpt>
      <trkpt lat="48.20113" lon="-4.51307">
        <ele>15.081</ele>
        <time>2009-05-01T13:02:01Z</time>
      </trkpt>
      <trkpt lat="48.20121" lon="-4.51307">
        <ele>19.595</ele>
        <time>2009-05-01T13:02:14Z</time>
      </trkpt>
      <trkpt lat="48.20132" lon="-4.51303">
        <ele>24.403</ele>
        <time>2009-05-01T13:02:29Z</time>
      </trkpt>
      <trkpt lat="48.20138" lon="-4.51307">
        <ele>24.903</ele>
        <time>2009-05-01T13:02:46Z</time>
      </trkpt>
      <trkpt lat="48.20143" lon="-4.51317">
        <ele>23.159</ele>
        <time>2009-05-01T13:03:05Z</time>
      </trkpt>
      <trkpt lat="48.20144" lon="-4.5132">
        <ele>21.517</ele>
        <time>2009-05-01T13:03:08Z</time>
      </trkpt>
      <trkpt lat="48.2015" lon="-4.51335">
        <ele>18.734</ele>
        <time>2009-05-01T13:03:22Z</time>
      </trkpt>
      <trkpt lat="48.20157" lon="-4.51338">
        <ele>16.429</ele>
        <time>2009-05-01T13:03:34Z</time>
      </trkpt>
      <trkpt lat="48.20158" lon="-4.51338">
        <ele>15.122</ele>
        <time>2009-05-01T13:04:04Z</time>
      </trkpt>
      <trkpt lat="48.20162" lon="-4.51352">
        <ele>13.981</ele>
        <time>2009-05-01T13:04:18Z</time>
      </trkpt>
      <trkpt lat="48.20162" lon="-4.51361">
        <ele>14.014</ele>
        <time>2009-05-01T13:04:32Z</time>
      </trkpt>
      <trkpt lat="48.20164" lon="-4.51371">
        <ele>16.02</ele>
        <time>2009-05-01T13:04:46Z</time>
      </trkpt>
      <trkpt lat="48.20161" lon="-4.51382">
        <ele>17.989</ele>
        <time>2009-05-01T13:05:02Z</time>
      </trkpt>
      <trkpt lat="48.20151" lon="-4.51395">
        <ele>21.967</ele>
        <time>2009-05-01T13:05:18Z</time>
      </trkpt>
      <trkpt lat="48.20152" lon="-4.51398">
        <ele>24.233</ele>
        <time>2009-05-01T13:05:36Z</time>
      </trkpt>
      <trkpt lat="48.20153" lon="-4.5141">
        <ele>25.923</ele>
        <time>2009-05-01T13:06:10Z</time>
      </trkpt>
      <trkpt lat="48.20153" lon="-4.51423">
        <ele>29.604</ele>
        <time>2009-05-01T13:06:27Z</time>
      </trkpt>
      <trkpt lat="48.20161" lon="-4.51435">
        <ele>31.633</ele>
        <time>2009-05-01T13:06:42Z</time>
      </trkpt>
      <trkpt lat="48.20164" lon="-4.51441">
        <ele>36.742</ele>
        <time>2009-05-01T13:07:00Z</time>
      </trkpt>
      <trkpt lat="48.20169" lon="-4.51446">
        <ele>40.067</ele>
        <time>2009-05-01T13:07:19Z</time>
      </trkpt>
      <trkpt lat="48.20181" lon="-4.51455">
        <ele>43.089</ele>
        <time>2009-05-01T13:07:33Z</time>
      </trkpt>
      <trkpt lat="48.2019" lon="-4.5147">
        <ele>44.176</ele>
        <time>2009-05-01T13:07:47Z</time>
      </trkpt>
      <trkpt lat="48.20192" lon="-4.5147">
        <ele>47.419</ele>
        <time>2009-05-01T13:08:08Z</time>
      </trkpt>
      <trkpt lat="48.20201" lon="-4.51481">
        <ele>46.553</ele>
        <time>2009-05-01T13:08:20Z</time>
      </trkpt>
      <trkpt lat="48.2021" lon="-4.5149">
        <ele>45.025</ele>
        <time>2009-05-01T13:08:33Z</time>
      </trkpt>
      <trkpt lat="48.20213" lon="-4.51486">
        <ele>46.406</ele>
        <time>2009-05-01T13:08:51Z</time>
      </trkpt>
      <trkpt lat="48.2022" lon="-4.51494">
        <ele>42.461</ele>
        <time>2009-05-01T13:09:06Z</time>
      </trkpt>
      <trkpt lat="48.20225" lon="-4.51497">
        <ele>40.899</ele>
        <time>2009-05-01T13:09:12Z</time>
      </trkpt>
      <trkpt lat="48.20235" lon="-4.51504">
        <ele>40.214</ele>
        <time>2009-05-01T13:09:27Z</time>
      </trkpt>
      <trkpt lat="48.20245" lon="-4.51504">
        <ele>40.673</ele>
        <time>2009-05-01T13:09:40Z</time>
      </trkpt>
      <trkpt lat="48.20258" lon="-4.5151">
        <ele>40.417</ele>
        <time>2009-05-01T13:09:56Z</time>
      </trkpt>
      <trkpt lat="48.20266" lon="-4.51516">
        <ele>36.649</ele>
        <time>2009-05-01T13:10:06Z</time>
      </trkpt>
      <trkpt lat="48.20277" lon="-4.51524">
        <ele>36.446</ele>
        <time>2009-05-01T13:10:20Z</time>
      </trkpt>
      <trkpt lat="48.2029" lon="-4.51535">
        <ele>38.33</ele>
        <time>2009-05-01T13:10:38Z</time>
      </trkpt>
      <trkpt lat="48.20304" lon="-4.51542">
        <ele>40.844</ele>
        <time>2009-05-01T13:10:54Z</time>
      </trkpt>
      <trkpt lat="48.20306" lon="-4.51538">
        <ele>41.211</ele>
        <time>2009-05-01T13:11:29Z</time>
      </trkpt>
      <trkpt lat="48.2032" lon="-4.51545">
        <ele>40.208</ele>
        <time>2009-05-01T13:11:42Z</time>
      </trkpt>
      <trkpt lat="48.20321" lon="-4.51546">
        <ele>40.1</ele>
        <time>2009-05-01T13:11:43Z</time>
      </trkpt>
      <trkpt lat="48.20331" lon="-4.51554">
        <ele>39.344</ele>
        <time>2009-05-01T13:11:52Z</time>
      </trkpt>
      <trkpt lat="48.20334" lon="-4.51557">
        <ele>38.878</ele>
        <time>2009-05-01T13:11:56Z</time>
      </trkpt>
      <trkpt lat="48.20347" lon="-4.51562">
        <ele>36.784</ele>
        <time>2009-05-01T13:12:08Z</time>
      </trkpt>
      <trkpt lat="48.20355" lon="-4.51567">
        <ele>35.221</ele>
        <time>2009-05-01T13:12:20Z</time>
      </trkpt>
      <trkpt lat="48.20362" lon="-4.51578">
        <ele>36.035</ele>
        <time>2009-05-01T13:12:34Z</time>
      </trkpt>
      <trkpt lat="48.20367" lon="-4.51585">
        <ele>38.511</ele>
        <time>2009-05-01T13:12:48Z</time>
      </trkpt>
      <trkpt lat="48.20379" lon="-4.51594">
        <ele>42.982</ele>
        <time>2009-05-01T13:13:02Z</time>
      </trkpt>
      <trkpt lat="48.20384" lon="-4.51595">
        <ele>45.808</ele>
        <time>2009-05-01T13:13:09Z</time>
      </trkpt>
      <trkpt lat="48.20398" lon="-4.51599">
        <ele>48.336</ele>
        <time>2009-05-01T13:13:21Z</time>
      </trkpt>
      <trkpt lat="48.20409" lon="-4.51604">
        <ele>48.191</ele>
        <time>2009-05-01T13:13:33Z</time>
      </trkpt>
      <trkpt lat="48.2042" lon="-4.51606">
        <ele>50.505</ele>
        <time>2009-05-01T13:13:43Z</time>
      </trkpt>
      <trkpt lat="48.2042" lon="-4.51605">
        <ele>50.546</ele>
        <time>2009-05-01T13:13:44Z</time>
      </trkpt>
      <trkpt lat="48.20429" lon="-4.51607">
        <ele>51.758</ele>
        <time>2009-05-01T13:13:53Z</time>
      </trkpt>
      <trkpt lat="48.20439" lon="-4.51612">
        <ele>52.854</ele>
        <time>2009-05-01T13:14:08Z</time>
      </trkpt>
      <trkpt lat="48.20446" lon="-4.51617">
        <ele>56.349</ele>
        <time>2009-05-01T13:14:21Z</time>
      </trkpt>
      <trkpt lat="48.20454" lon="-4.51622">
        <ele>58.208</ele>
        <time>2009-05-01T13:14:36Z</time>
      </trkpt>
      <trkpt lat="48.2046" lon="-4.51625">
        <ele>59.616</ele>
        <time>2009-05-01T13:14:51Z</time>
      </trkpt>
      <trkpt lat="48.20469" lon="-4.51632">
        <ele>62.228</ele>
        <time>2009-05-01T13:15:15Z</time>
      </trkpt>
      <trkpt lat="48.20472" lon="-4.5163">
        <ele>64.152</ele>
        <time>2009-05-01T13:15:28Z</time>
      </trkpt>
      <trkpt lat="48.2047" lon="-4.51633">
        <ele>64.65</ele>
        <time>2009-05-01T13:16:03Z</time>
      </trkpt>
      <trkpt lat="48.20472" lon="-4.51645">
        <ele>65.228</ele>
        <time>2009-05-01T13:16:13Z</time>
      </trkpt>
      <trkpt lat="48.20474" lon="-4.51667">
        <ele>66.118</ele>
        <time>2009-05-01T13:16:27Z</time>
      </trkpt>
      <trkpt lat="48.20474" lon="-4.5168">
        <ele>66.984</ele>
        <time>2009-05-01T13:16:35Z</time>
      </trkpt>
      <trkpt lat="48.20477" lon="-4.51703">
        <ele>72.059</ele>
        <time>2009-05-01T13:16:49Z</time>
      </trkpt>
      <trkpt lat="48.20478" lon="-4.51715">
        <ele>71.606</ele>
        <time>2009-05-01T13:16:56Z</time>
      </trkpt>
      <trkpt lat="48.2048" lon="-4.51731">
        <ele>72.948</ele>
        <time>2009-05-01T13:17:08Z</time>
      </trkpt>
      <trkpt lat="48.2048" lon="-4.51734">
        <ele>73.148</ele>
        <time>2009-05-01T13:17:12Z</time>
      </trkpt>
      <trkpt lat="48.20481" lon="-4.51752">
        <ele>74.063</ele>
        <time>2009-05-01T13:17:22Z</time>
      </trkpt>
      <trkpt lat="48.20483" lon="-4.51776">
        <ele>75.176</ele>
        <time>2009-05-01T13:17:36Z</time>
      </trkpt>
      <trkpt lat="48.20483" lon="-4.51798">
        <ele>73.002</ele>
        <time>2009-05-01T13:17:49Z</time>
      </trkpt>
      <trkpt lat="48.20487" lon="-4.51823">
        <ele>71.518</ele>
        <time>2009-05-01T13:18:03Z</time>
      </trkpt>
      <trkpt lat="48.20489" lon="-4.5184">
        <ele>70.662</ele>
        <time>2009-05-01T13:18:12Z</time>
      </trkpt>
      <trkpt lat="48.2049" lon="-4.51853">
        <ele>70.296</ele>
        <time>2009-05-01T13:18:26Z</time>
      </trkpt>
      <trkpt lat="48.20491" lon="-4.51862">
        <ele>70.077</ele>
        <time>2009-05-01T13:18:42Z</time>
      </trkpt>
      <trkpt lat="48.20495" lon="-4.51867">
        <ele>70.873</ele>
        <time>2009-05-01T13:18:49Z</time>
      </trkpt>
      <trkpt lat="48.20505" lon="-4.51867">
        <ele>70.974</ele>
        <time>2009-05-01T13:19:02Z</time>
      </trkpt>
      <trkpt lat="48.2052" lon="-4.51864">
        <ele>69.756</ele>
        <time>2009-05-01T13:19:16Z</time>
      </trkpt>
      <trkpt lat="48.20523" lon="-4.51864">
        <ele>70.908</ele>
        <time>2009-05-01T13:19:19Z</time>
      </trkpt>
      <trkpt lat="48.20533" lon="-4.51862">
        <ele>70.076</ele>
        <time>2009-05-01T13:19:28Z</time>
      </trkpt>
      <trkpt lat="48.20534" lon="-4.51858">
        <ele>70.323</ele>
        <time>2009-05-01T13:19:48Z</time>
      </trkpt>
      <trkpt lat="48.20548" lon="-4.51858">
        <ele>70.391</ele>
        <time>2009-05-01T13:20:09Z</time>
      </trkpt>
      <trkpt lat="48.20566" lon="-4.51855">
        <ele>69.106</ele>
        <time>2009-05-01T13:20:23Z</time>
      </trkpt>
      <trkpt lat="48.20584" lon="-4.51853">
        <ele>67.687</ele>
        <time>2009-05-01T13:20:39Z</time>
      </trkpt>
      <trkpt lat="48.20598" lon="-4.51847">
        <ele>66.658</ele>
        <time>2009-05-01T13:20:52Z</time>
      </trkpt>
      <trkpt lat="48.20611" lon="-4.51842">
        <ele>66.531</ele>
        <time>2009-05-01T13:21:02Z</time>
      </trkpt>
      <trkpt lat="48.20613" lon="-4.5184">
        <ele>68.529</ele>
        <time>2009-05-01T13:21:05Z</time>
      </trkpt>
      <trkpt lat="48.20629" lon="-4.51838">
        <ele>71.762</ele>
        <time>2009-05-01T13:21:20Z</time>
      </trkpt>
      <trkpt lat="48.2064" lon="-4.51831">
        <ele>68.932</ele>
        <time>2009-05-01T13:21:33Z</time>
      </trkpt>
      <trkpt lat="48.20653" lon="-4.51823">
        <ele>64.606</ele>
        <time>2009-05-01T13:21:46Z</time>
      </trkpt>
      <trkpt lat="48.20662" lon="-4.51819">
        <ele>63.415</ele>
        <time>2009-05-01T13:21:54Z</time>
      </trkpt>
      <trkpt lat="48.2068" lon="-4.51809">
        <ele>62.531</ele>
        <time>2009-05-01T13:22:10Z</time>
      </trkpt>
      <trkpt lat="48.20695" lon="-4.51806">
        <ele>65.931</ele>
        <time>2009-05-01T13:22:25Z</time>
      </trkpt>
      <trkpt lat="48.20713" lon="-4.51807">
        <ele>63.493</ele>
        <time>2009-05-01T13:22:42Z</time>
      </trkpt>
      <trkpt lat="48.20729" lon="-4.51805">
        <ele>58.231</ele>
        <time>2009-05-01T13:22:57Z</time>
      </trkpt>
      <trkpt lat="48.20737" lon="-4.51803">
        <ele>58.115</ele>
        <time>2009-05-01T13:23:11Z</time>
      </trkpt>
      <trkpt lat="48.20755" lon="-4.518">
        <ele>60.65</ele>
        <time>2009-05-01T13:23:25Z</time>
      </trkpt>
      <trkpt lat="48.20757" lon="-4.51799">
        <ele>60.258</ele>
        <time>2009-05-01T13:23:28Z</time>
      </trkpt>
      <trkpt lat="48.20774" lon="-4.518">
        <ele>59.939</ele>
        <time>2009-05-01T13:23:43Z</time>
      </trkpt>
      <trkpt lat="48.20794" lon="-4.51797">
        <ele>59.08</ele>
        <time>2009-05-01T13:24:00Z</time>
      </trkpt>
      <trkpt lat="48.2081" lon="-4.51795">
        <ele>60.262</ele>
        <time>2009-05-01T13:24:13Z</time>
      </trkpt>
      <trkpt lat="48.20827" lon="-4.5179">
        <ele>58.632</ele>
        <time>2009-05-01T13:24:28Z</time>
      </trkpt>
      <trkpt lat="48.20842" lon="-4.51781">
        <ele>55.743</ele>
        <time>2009-05-01T13:24:42Z</time>
      </trkpt>
      <trkpt lat="48.20859" lon="-4.51777">
        <ele>55.925</ele>
        <time>2009-05-01T13:24:57Z</time>
      </trkpt>
      <trkpt lat="48.20872" lon="-4.51773">
        <ele>57.374</ele>
        <time>2009-05-01T13:25:09Z</time>
      </trkpt>
      <trkpt lat="48.20884" lon="-4.5177">
        <ele>58.048</ele>
        <time>2009-05-01T13:25:20Z</time>
      </trkpt>
      <trkpt lat="48.2089" lon="-4.51767">
        <ele>59.738</ele>
        <time>2009-05-01T13:25:26Z</time>
      </trkpt>
      <trkpt lat="48.20901" lon="-4.51765">
        <ele>58.6</ele>
        <time>2009-05-01T13:25:42Z</time>
      </trkpt>
      <trkpt lat="48.20905" lon="-4.51766">
        <ele>57.138</ele>
        <time>2009-05-01T13:26:01Z</time>
      </trkpt>
      <trkpt lat="48.20926" lon="-4.51757">
        <ele>56.678</ele>
        <time>2009-05-01T13:26:17Z</time>
      </trkpt>
      <trkpt lat="48.20946" lon="-4.51751">
        <ele>57.103</ele>
        <time>2009-05-01T13:26:34Z</time>
      </trkpt>
      <trkpt lat="48.20958" lon="-4.51745">
        <ele>56.57</ele>
        <time>2009-05-01T13:26:50Z</time>
      </trkpt>
      <trkpt lat="48.20957" lon="-4.51739">
        <ele>56.436</ele>
        <time>2009-05-01T13:26:54Z</time>
      </trkpt>
      <trkpt lat="48.20953" lon="-4.51729">
        <ele>55.996</ele>
        <time>2009-05-01T13:27:04Z</time>
      </trkpt>
      <trkpt lat="48.20951" lon="-4.51726">
        <ele>55.991</ele>
        <time>2009-05-01T13:27:25Z</time>
      </trkpt>
      <trkpt lat="48.20956" lon="-4.51729">
        <ele>55.782</ele>
        <time>2009-05-01T13:28:02Z</time>
      </trkpt>
      <trkpt lat="48.20955" lon="-4.51729">
        <ele>55.905</ele>
        <time>2009-05-01T13:28:06Z</time>
      </trkpt>
      <trkpt lat="48.20957" lon="-4.51743">
        <ele>57.712</ele>
        <time>2009-05-01T13:28:20Z</time>
      </trkpt>
      <trkpt lat="48.20957" lon="-4.51744">
        <ele>56.764</ele>
        <time>2009-05-01T13:29:00Z</time>
      </trkpt>
      <trkpt lat="48.20957" lon="-4.51744">
        <ele>56.76</ele>
        <time>2009-05-01T13:29:48Z</time>
      </trkpt>
      <trkpt lat="48.20974" lon="-4.51745">
        <ele>55.442</ele>
        <time>2009-05-01T13:30:03Z</time>
      </trkpt>
      <trkpt lat="48.20985" lon="-4.5174">
        <ele>57.278</ele>
        <time>2009-05-01T13:30:15Z</time>
      </trkpt>
      <trkpt lat="48.21003" lon="-4.51735">
        <ele>55.87</ele>
        <time>2009-05-01T13:30:30Z</time>
      </trkpt>
      <trkpt lat="48.21011" lon="-4.51733">
        <ele>55.05</ele>
        <time>2009-05-01T13:30:38Z</time>
      </trkpt>
      <trkpt lat="48.21029" lon="-4.51729">
        <ele>53.39</ele>
        <time>2009-05-01T13:30:53Z</time>
      </trkpt>
      <trkpt lat="48.21044" lon="-4.51722">
        <ele>54.736</ele>
        <time>2009-05-01T13:31:08Z</time>
      </trkpt>
      <trkpt lat="48.21061" lon="-4.51717">
        <ele>55.522</ele>
        <time>2009-05-01T13:31:25Z</time>
      </trkpt>
      <trkpt lat="48.2108" lon="-4.51713">
        <ele>54.777</ele>
        <time>2009-05-01T13:31:41Z</time>
      </trkpt>
      <trkpt lat="48.21098" lon="-4.5171">
        <ele>55.293</ele>
        <time>2009-05-01T13:31:58Z</time>
      </trkpt>
      <trkpt lat="48.21107" lon="-4.51708">
        <ele>56.619</ele>
        <time>2009-05-01T13:32:12Z</time>
      </trkpt>
      <trkpt lat="48.21129" lon="-4.51703">
        <ele>55.041</ele>
        <time>2009-05-01T13:32:30Z</time>
      </trkpt>
      <trkpt lat="48.21147" lon="-4.51698">
        <ele>54.291</ele>
        <time>2009-05-01T13:32:47Z</time>
      </trkpt>
      <trkpt lat="48.21168" lon="-4.51692">
        <ele>52.742</ele>
        <time>2009-05-01T13:33:06Z</time>
      </trkpt>
      <trkpt lat="48.21187" lon="-4.51689">
        <ele>52.426</ele>
        <time>2009-05-01T13:33:22Z</time>
      </trkpt>
      <trkpt lat="48.21206" lon="-4.51682">
        <ele>54.226</ele>
        <time>2009-05-01T13:33:39Z</time>
      </trkpt>
      <trkpt lat="48.21222" lon="-4.51679">
        <ele>52.599</ele>
        <time>2009-05-01T13:33:53Z</time>
      </trkpt>
      <trkpt lat="48.21237" lon="-4.51674">
        <ele>53.382</ele>
        <time>2009-05-01T13:34:07Z</time>
      </trkpt>
      <trkpt lat="48.21258" lon="-4.51667">
        <ele>52.598</ele>
        <time>2009-05-01T13:34:26Z</time>
      </trkpt>
      <trkpt lat="48.2128" lon="-4.51659">
        <ele>53.953</ele>
        <time>2009-05-01T13:34:45Z</time>
      </trkpt>
      <trkpt lat="48.21288" lon="-4.51657">
        <ele>53.883</ele>
        <time>2009-05-01T13:34:52Z</time>
      </trkpt>
      <trkpt lat="48.213" lon="-4.51655">
        <ele>53.558</ele>
        <time>2009-05-01T13:35:03Z</time>
      </trkpt>
      <trkpt lat="48.21313" lon="-4.5165">
        <ele>52.61</ele>
        <time>2009-05-01T13:35:15Z</time>
      </trkpt>
      <trkpt lat="48.21324" lon="-4.51647">
        <ele>53.825</ele>
        <time>2009-05-01T13:35:25Z</time>
      </trkpt>
      <trkpt lat="48.21329" lon="-4.51647">
        <ele>52.836</ele>
        <time>2009-05-01T13:35:29Z</time>
      </trkpt>
      <trkpt lat="48.2135" lon="-4.5164">
        <ele>51.995</ele>
        <time>2009-05-01T13:35:48Z</time>
      </trkpt>
      <trkpt lat="48.21351" lon="-4.5164">
        <ele>52.163</ele>
        <time>2009-05-01T13:35:49Z</time>
      </trkpt>
      <trkpt lat="48.21372" lon="-4.51635">
        <ele>50.851</ele>
        <time>2009-05-01T13:36:07Z</time>
      </trkpt>
      <trkpt lat="48.21385" lon="-4.51631">
        <ele>49.96</ele>
        <time>2009-05-01T13:36:19Z</time>
      </trkpt>
      <trkpt lat="48.21402" lon="-4.51628">
        <ele>48.401</ele>
        <time>2009-05-01T13:36:34Z</time>
      </trkpt>
      <trkpt lat="48.21421" lon="-4.51625">
        <ele>46.955</ele>
        <time>2009-05-01T13:36:51Z</time>
      </trkpt>
      <trkpt lat="48.21437" lon="-4.51622">
        <ele>48.947</ele>
        <time>2009-05-01T13:37:06Z</time>
      </trkpt>
      <trkpt lat="48.21457" lon="-4.51613">
        <ele>50.202</ele>
        <time>2009-05-01T13:37:25Z</time>
      </trkpt>
      <trkpt lat="48.21466" lon="-4.51612">
        <ele>49.503</ele>
        <time>2009-05-01T13:37:32Z</time>
      </trkpt>
      <trkpt lat="48.2147" lon="-4.5161">
        <ele>49.529</ele>
        <time>2009-05-01T13:37:37Z</time>
      </trkpt>
      <trkpt lat="48.21481" lon="-4.51609">
        <ele>49.315</ele>
        <time>2009-05-01T13:37:46Z</time>
      </trkpt>
      <trkpt lat="48.21486" lon="-4.51607">
        <ele>49.142</ele>
        <time>2009-05-01T13:37:50Z</time>
      </trkpt>
      <trkpt lat="48.21508" lon="-4.51602">
        <ele>48.584</ele>
        <time>2009-05-01T13:38:09Z</time>
      </trkpt>
      <trkpt lat="48.21526" lon="-4.51597">
        <ele>47.289</ele>
        <time>2009-05-01T13:38:25Z</time>
      </trkpt>
      <trkpt lat="48.2154" lon="-4.51595">
        <ele>47.301</ele>
        <time>2009-05-01T13:38:38Z</time>
      </trkpt>
      <trkpt lat="48.21544" lon="-4.51592">
        <ele>47.39</ele>
        <time>2009-05-01T13:38:42Z</time>
      </trkpt>
      <trkpt lat="48.21558" lon="-4.51588">
        <ele>47.54</ele>
        <time>2009-05-01T13:38:56Z</time>
      </trkpt>
      <trkpt lat="48.21574" lon="-4.51585">
        <ele>44.177</ele>
        <time>2009-05-01T13:39:11Z</time>
      </trkpt>
      <trkpt lat="48.21592" lon="-4.51582">
        <ele>44.89</ele>
        <time>2009-05-01T13:39:28Z</time>
      </trkpt>
      <trkpt lat="48.216" lon="-4.51581">
        <ele>44.625</ele>
        <time>2009-05-01T13:39:44Z</time>
      </trkpt>
      <trkpt lat="48.21615" lon="-4.51588">
        <ele>44.119</ele>
        <time>2009-05-01T13:40:01Z</time>
      </trkpt>
      <trkpt lat="48.21628" lon="-4.51605">
        <ele>44.386</ele>
        <time>2009-05-01T13:40:17Z</time>
      </trkpt>
      <trkpt lat="48.21639" lon="-4.51624">
        <ele>43.621</ele>
        <time>2009-05-01T13:40:32Z</time>
      </trkpt>
      <trkpt lat="48.21644" lon="-4.51634">
        <ele>43.158</ele>
        <time>2009-05-01T13:40:39Z</time>
      </trkpt>
      <trkpt lat="48.21656" lon="-4.51653">
        <ele>41.917</ele>
        <time>2009-05-01T13:40:53Z</time>
      </trkpt>
      <trkpt lat="48.21668" lon="-4.51669">
        <ele>42.929</ele>
        <time>2009-05-01T13:41:09Z</time>
      </trkpt>
      <trkpt lat="48.21683" lon="-4.51691">
        <ele>38.737</ele>
        <time>2009-05-01T13:41:26Z</time>
      </trkpt>
      <trkpt lat="48.21683" lon="-4.51696">
        <ele>38.617</ele>
        <time>2009-05-01T13:41:30Z</time>
      </trkpt>
      <trkpt lat="48.21678" lon="-4.51716">
        <ele>37.912</ele>
        <time>2009-05-01T13:41:43Z</time>
      </trkpt>
      <trkpt lat="48.21677" lon="-4.51721">
        <ele>37.642</ele>
        <time>2009-05-01T13:41:47Z</time>
      </trkpt>
      <trkpt lat="48.21673" lon="-4.51736">
        <ele>38.899</ele>
        <time>2009-05-01T13:42:02Z</time>
      </trkpt>
      <trkpt lat="48.21671" lon="-4.51743">
        <ele>39.859</ele>
        <time>2009-05-01T13:42:07Z</time>
      </trkpt>
      <trkpt lat="48.21671" lon="-4.51754">
        <ele>41.839</ele>
        <time>2009-05-01T13:42:14Z</time>
      </trkpt>
      <trkpt lat="48.21668" lon="-4.51774">
        <ele>39.979</ele>
        <time>2009-05-01T13:42:27Z</time>
      </trkpt>
      <trkpt lat="48.21666" lon="-4.51795">
        <ele>37.835</ele>
        <time>2009-05-01T13:42:41Z</time>
      </trkpt>
      <trkpt lat="48.21664" lon="-4.51804">
        <ele>38.451</ele>
        <time>2009-05-01T13:42:47Z</time>
      </trkpt>
      <trkpt lat="48.2166" lon="-4.51826">
        <ele>35.869</ele>
        <time>2009-05-01T13:43:03Z</time>
      </trkpt>
      <trkpt lat="48.21658" lon="-4.51848">
        <ele>34.265</ele>
        <time>2009-05-01T13:43:18Z</time>
      </trkpt>
      <trkpt lat="48.21658" lon="-4.51854">
        <ele>34.727</ele>
        <time>2009-05-01T13:43:22Z</time>
      </trkpt>
      <trkpt lat="48.21659" lon="-4.51861">
        <ele>34.865</ele>
        <time>2009-05-01T13:43:27Z</time>
      </trkpt>
      <trkpt lat="48.21659" lon="-4.51864">
        <ele>34.49</ele>
        <time>2009-05-01T13:43:30Z</time>
      </trkpt>
      <trkpt lat="48.21672" lon="-4.51884">
        <ele>32.956</ele>
        <time>2009-05-01T13:43:48Z</time>
      </trkpt>
      <trkpt lat="48.21684" lon="-4.519">
        <ele>31.644</ele>
        <time>2009-05-01T13:44:02Z</time>
      </trkpt>
      <trkpt lat="48.21696" lon="-4.51914">
        <ele>31.306</ele>
        <time>2009-05-01T13:44:18Z</time>
      </trkpt>
      <trkpt lat="48.21698" lon="-4.51916">
        <ele>30.682</ele>
        <time>2009-05-01T13:44:40Z</time>
      </trkpt>
      <trkpt lat="48.217" lon="-4.51918">
        <ele>31.444</ele>
        <time>2009-05-01T13:45:04Z</time>
      </trkpt>
    </trkseg>
  </trk>
  <trk>
    <name><![CDATA[ACTIVE LOG154531]]></name>
    <trkseg>
      <trkpt lat="48.217" lon="-4.51918">
        <ele>31.229</ele>
        <time>2009-05-01T13:45:30Z</time>
      </trkpt>
      <trkpt lat="48.217" lon="-4.51918">
        <ele>31.243</ele>
        <time>2009-05-01T13:45:32Z</time>
      </trkpt>
    </trkseg>
  </trk>
  <trk>
    <name><![CDATA[ACTIVE LOG162810]]></name>
    <trkseg>
      <trkpt lat="48.25852" lon="-4.62158">
        <ele>52.086</ele>
        <time>2009-05-01T14:28:09Z</time>
      </trkpt>
      <trkpt lat="48.2585" lon="-4.62158">
        <ele>51.664</ele>
        <time>2009-05-01T14:28:17Z</time>
      </trkpt>
      <trkpt lat="48.25835" lon="-4.62168">
        <ele>49.443</ele>
        <time>2009-05-01T14:28:31Z</time>
      </trkpt>
      <trkpt lat="48.25826" lon="-4.62175">
        <ele>46.558</ele>
        <time>2009-05-01T14:28:44Z</time>
      </trkpt>
      <trkpt lat="48.25823" lon="-4.62181">
        <ele>45.595</ele>
        <time>2009-05-01T14:28:48Z</time>
      </trkpt>
      <trkpt lat="48.25816" lon="-4.62198">
        <ele>46.93</ele>
        <time>2009-05-01T14:29:05Z</time>
      </trkpt>
      <trkpt lat="48.25809" lon="-4.62203">
        <ele>48.367</ele>
        <time>2009-05-01T14:29:13Z</time>
      </trkpt>
      <trkpt lat="48.25802" lon="-4.62214">
        <ele>48.421</ele>
        <time>2009-05-01T14:29:25Z</time>
      </trkpt>
      <trkpt lat="48.25797" lon="-4.62221">
        <ele>48.203</ele>
        <time>2009-05-01T14:29:31Z</time>
      </trkpt>
      <trkpt lat="48.25792" lon="-4.62227">
        <ele>50.488</ele>
        <time>2009-05-01T14:29:37Z</time>
      </trkpt>
      <trkpt lat="48.25782" lon="-4.62235">
        <ele>52.565</ele>
        <time>2009-05-01T14:29:50Z</time>
      </trkpt>
      <trkpt lat="48.25776" lon="-4.62239">
        <ele>55.359</ele>
        <time>2009-05-01T14:29:56Z</time>
      </trkpt>
      <trkpt lat="48.25772" lon="-4.62238">
        <ele>51.687</ele>
        <time>2009-05-01T14:30:09Z</time>
      </trkpt>
      <trkpt lat="48.25767" lon="-4.62238">
        <ele>52.604</ele>
        <time>2009-05-01T14:30:15Z</time>
      </trkpt>
      <trkpt lat="48.25756" lon="-4.62243">
        <ele>49.55</ele>
        <time>2009-05-01T14:30:30Z</time>
      </trkpt>
      <trkpt lat="48.25753" lon="-4.6225">
        <ele>46.149</ele>
        <time>2009-05-01T14:30:44Z</time>
      </trkpt>
      <trkpt lat="48.25743" lon="-4.62257">
        <ele>43.077</ele>
        <time>2009-05-01T14:31:02Z</time>
      </trkpt>
      <trkpt lat="48.2574" lon="-4.62258">
        <ele>43.43</ele>
        <time>2009-05-01T14:31:06Z</time>
      </trkpt>
      <trkpt lat="48.25737" lon="-4.6226">
        <ele>43.476</ele>
        <time>2009-05-01T14:31:09Z</time>
      </trkpt>
      <trkpt lat="48.25731" lon="-4.62271">
        <ele>46.492</ele>
        <time>2009-05-01T14:31:27Z</time>
      </trkpt>
      <trkpt lat="48.25725" lon="-4.62281">
        <ele>46.248</ele>
        <time>2009-05-01T14:31:45Z</time>
      </trkpt>
      <trkpt lat="48.25724" lon="-4.62281">
        <ele>46.189</ele>
        <time>2009-05-01T14:31:46Z</time>
      </trkpt>
      <trkpt lat="48.25711" lon="-4.62285">
        <ele>42.575</ele>
        <time>2009-05-01T14:32:02Z</time>
      </trkpt>
      <trkpt lat="48.2571" lon="-4.62296">
        <ele>41.873</ele>
        <time>2009-05-01T14:32:15Z</time>
      </trkpt>
      <trkpt lat="48.25706" lon="-4.62299">
        <ele>40.32</ele>
        <time>2009-05-01T14:32:24Z</time>
      </trkpt>
      <trkpt lat="48.25691" lon="-4.62302">
        <ele>40.712</ele>
        <time>2009-05-01T14:32:38Z</time>
      </trkpt>
      <trkpt lat="48.25679" lon="-4.62304">
        <ele>44.574</ele>
        <time>2009-05-01T14:32:52Z</time>
      </trkpt>
      <trkpt lat="48.25676" lon="-4.62307">
        <ele>45.944</ele>
        <time>2009-05-01T14:33:05Z</time>
      </trkpt>
      <trkpt lat="48.25677" lon="-4.62307">
        <ele>46.924</ele>
        <time>2009-05-01T14:33:26Z</time>
      </trkpt>
      <trkpt lat="48.25669" lon="-4.62311">
        <ele>53.959</ele>
        <time>2009-05-01T14:35:50Z</time>
      </trkpt>
      <trkpt lat="48.25667" lon="-4.62316">
        <ele>53.06</ele>
        <time>2009-05-01T14:36:02Z</time>
      </trkpt>
      <trkpt lat="48.25668" lon="-4.62314">
        <ele>53.329</ele>
        <time>2009-05-01T14:36:47Z</time>
      </trkpt>
      <trkpt lat="48.25669" lon="-4.62311">
        <ele>53.916</ele>
        <time>2009-05-01T14:36:49Z</time>
      </trkpt>
      <trkpt lat="48.25676" lon="-4.62307">
        <ele>53.945</ele>
        <time>2009-05-01T14:37:03Z</time>
      </trkpt>
      <trkpt lat="48.25671" lon="-4.6231">
        <ele>52.342</ele>
        <time>2009-05-01T14:37:19Z</time>
      </trkpt>
      <trkpt lat="48.25677" lon="-4.62306">
        <ele>51.469</ele>
        <time>2009-05-01T14:37:43Z</time>
      </trkpt>
      <trkpt lat="48.25684" lon="-4.62312">
        <ele>49.771</ele>
        <time>2009-05-01T14:37:55Z</time>
      </trkpt>
      <trkpt lat="48.25684" lon="-4.62315">
        <ele>49.816</ele>
        <time>2009-05-01T14:38:07Z</time>
      </trkpt>
      <trkpt lat="48.25685" lon="-4.62309">
        <ele>49.842</ele>
        <time>2009-05-01T14:38:13Z</time>
      </trkpt>
      <trkpt lat="48.25687" lon="-4.62299">
        <ele>53.255</ele>
        <time>2009-05-01T14:38:23Z</time>
      </trkpt>
      <trkpt lat="48.25699" lon="-4.62295">
        <ele>54.479</ele>
        <time>2009-05-01T14:38:37Z</time>
      </trkpt>
      <trkpt lat="48.25703" lon="-4.62289">
        <ele>52.251</ele>
        <time>2009-05-01T14:38:51Z</time>
      </trkpt>
      <trkpt lat="48.25708" lon="-4.62283">
        <ele>52.216</ele>
        <time>2009-05-01T14:39:05Z</time>
      </trkpt>
      <trkpt lat="48.25707" lon="-4.62275">
        <ele>51.808</ele>
        <time>2009-05-01T14:39:20Z</time>
      </trkpt>
      <trkpt lat="48.25703" lon="-4.62262">
        <ele>52.015</ele>
        <time>2009-05-01T14:39:29Z</time>
      </trkpt>
      <trkpt lat="48.25703" lon="-4.6226">
        <ele>51.559</ele>
        <time>2009-05-01T14:39:31Z</time>
      </trkpt>
      <trkpt lat="48.257" lon="-4.62247">
        <ele>51.744</ele>
        <time>2009-05-01T14:39:46Z</time>
      </trkpt>
      <trkpt lat="48.25699" lon="-4.62243">
        <ele>51.13</ele>
        <time>2009-05-01T14:39:52Z</time>
      </trkpt>
      <trkpt lat="48.25701" lon="-4.62246">
        <ele>49.646</ele>
        <time>2009-05-01T14:40:10Z</time>
      </trkpt>
      <trkpt lat="48.25695" lon="-4.62227">
        <ele>49.882</ele>
        <time>2009-05-01T14:40:21Z</time>
      </trkpt>
      <trkpt lat="48.25688" lon="-4.62205">
        <ele>52.044</ele>
        <time>2009-05-01T14:40:35Z</time>
      </trkpt>
      <trkpt lat="48.25673" lon="-4.62191">
        <ele>50.939</ele>
        <time>2009-05-01T14:40:50Z</time>
      </trkpt>
      <trkpt lat="48.25662" lon="-4.62186">
        <ele>50.085</ele>
        <time>2009-05-01T14:41:03Z</time>
      </trkpt>
      <trkpt lat="48.25654" lon="-4.62185">
        <ele>49.175</ele>
        <time>2009-05-01T14:41:26Z</time>
      </trkpt>
      <trkpt lat="48.25651" lon="-4.62186">
        <ele>49.923</ele>
        <time>2009-05-01T14:41:29Z</time>
      </trkpt>
      <trkpt lat="48.25642" lon="-4.62179">
        <ele>51.281</ele>
        <time>2009-05-01T14:41:47Z</time>
      </trkpt>
      <trkpt lat="48.25628" lon="-4.62172">
        <ele>53.151</ele>
        <time>2009-05-01T14:41:59Z</time>
      </trkpt>
      <trkpt lat="48.25618" lon="-4.62163">
        <ele>57.522</ele>
        <time>2009-05-01T14:42:14Z</time>
      </trkpt>
      <trkpt lat="48.25614" lon="-4.62163">
        <ele>58.074</ele>
        <time>2009-05-01T14:42:36Z</time>
      </trkpt>
      <trkpt lat="48.25612" lon="-4.62164">
        <ele>57.253</ele>
        <time>2009-05-01T14:42:38Z</time>
      </trkpt>
      <trkpt lat="48.25593" lon="-4.62165">
        <ele>53.794</ele>
        <time>2009-05-01T14:42:55Z</time>
      </trkpt>
      <trkpt lat="48.25583" lon="-4.62169">
        <ele>50.912</ele>
        <time>2009-05-01T14:43:11Z</time>
      </trkpt>
      <trkpt lat="48.2558" lon="-4.62172">
        <ele>50.373</ele>
        <time>2009-05-01T14:43:25Z</time>
      </trkpt>
      <trkpt lat="48.25578" lon="-4.62172">
        <ele>49.645</ele>
        <time>2009-05-01T14:43:41Z</time>
      </trkpt>
      <trkpt lat="48.25575" lon="-4.62171">
        <ele>49.512</ele>
        <time>2009-05-01T14:43:55Z</time>
      </trkpt>
      <trkpt lat="48.25574" lon="-4.6217">
        <ele>50.516</ele>
        <time>2009-05-01T14:44:09Z</time>
      </trkpt>
      <trkpt lat="48.25572" lon="-4.62165">
        <ele>50.827</ele>
        <time>2009-05-01T14:45:22Z</time>
      </trkpt>
      <trkpt lat="48.25567" lon="-4.62166">
        <ele>50.085</ele>
        <time>2009-05-01T14:45:43Z</time>
      </trkpt>
      <trkpt lat="48.25569" lon="-4.62169">
        <ele>50.569</ele>
        <time>2009-05-01T14:46:09Z</time>
      </trkpt>
      <trkpt lat="48.25572" lon="-4.62172">
        <ele>50.585</ele>
        <time>2009-05-01T14:46:32Z</time>
      </trkpt>
      <trkpt lat="48.25572" lon="-4.6217">
        <ele>50.855</ele>
        <time>2009-05-01T14:47:04Z</time>
      </trkpt>
      <trkpt lat="48.25571" lon="-4.62168">
        <ele>50.632</ele>
        <time>2009-05-01T14:47:59Z</time>
      </trkpt>
      <trkpt lat="48.25577" lon="-4.6216">
        <ele>53.319</ele>
        <time>2009-05-01T14:48:17Z</time>
      </trkpt>
      <trkpt lat="48.25582" lon="-4.62157">
        <ele>52.723</ele>
        <time>2009-05-01T14:48:34Z</time>
      </trkpt>
      <trkpt lat="48.25585" lon="-4.62155">
        <ele>52.748</ele>
        <time>2009-05-01T14:48:37Z</time>
      </trkpt>
      <trkpt lat="48.25593" lon="-4.62156">
        <ele>55.872</ele>
        <time>2009-05-01T14:48:51Z</time>
      </trkpt>
      <trkpt lat="48.25611" lon="-4.62149">
        <ele>56.947</ele>
        <time>2009-05-01T14:49:13Z</time>
      </trkpt>
      <trkpt lat="48.25616" lon="-4.62151">
        <ele>57.22</ele>
        <time>2009-05-01T14:49:30Z</time>
      </trkpt>
      <trkpt lat="48.25614" lon="-4.62158">
        <ele>57.657</ele>
        <time>2009-05-01T14:49:47Z</time>
      </trkpt>
      <trkpt lat="48.25611" lon="-4.62161">
        <ele>57.053</ele>
        <time>2009-05-01T14:50:01Z</time>
      </trkpt>
      <trkpt lat="48.25617" lon="-4.62162">
        <ele>56.856</ele>
        <time>2009-05-01T14:50:21Z</time>
      </trkpt>
      <trkpt lat="48.25618" lon="-4.62162">
        <ele>56.103</ele>
        <time>2009-05-01T14:50:23Z</time>
      </trkpt>
      <trkpt lat="48.25623" lon="-4.6216">
        <ele>55.965</ele>
        <time>2009-05-01T14:50:28Z</time>
      </trkpt>
      <trkpt lat="48.25634" lon="-4.62156">
        <ele>55.085</ele>
        <time>2009-05-01T14:50:42Z</time>
      </trkpt>
      <trkpt lat="48.25648" lon="-4.62153">
        <ele>54.296</ele>
        <time>2009-05-01T14:50:58Z</time>
      </trkpt>
      <trkpt lat="48.25661" lon="-4.62152">
        <ele>54.358</ele>
        <time>2009-05-01T14:51:12Z</time>
      </trkpt>
      <trkpt lat="48.25674" lon="-4.62148">
        <ele>50.633</ele>
        <time>2009-05-01T14:51:26Z</time>
      </trkpt>
      <trkpt lat="48.25688" lon="-4.62148">
        <ele>51.453</ele>
        <time>2009-05-01T14:51:41Z</time>
      </trkpt>
      <trkpt lat="48.25701" lon="-4.62144">
        <ele>50.376</ele>
        <time>2009-05-01T14:51:54Z</time>
      </trkpt>
      <trkpt lat="48.25707" lon="-4.62144">
        <ele>50.418</ele>
        <time>2009-05-01T14:52:00Z</time>
      </trkpt>
      <trkpt lat="48.2572" lon="-4.62143">
        <ele>50.976</ele>
        <time>2009-05-01T14:52:13Z</time>
      </trkpt>
      <trkpt lat="48.25729" lon="-4.62142">
        <ele>49.523</ele>
        <time>2009-05-01T14:52:23Z</time>
      </trkpt>
      <trkpt lat="48.25745" lon="-4.6214">
        <ele>51.088</ele>
        <time>2009-05-01T14:52:39Z</time>
      </trkpt>
      <trkpt lat="48.25759" lon="-4.62138">
        <ele>49.031</ele>
        <time>2009-05-01T14:52:53Z</time>
      </trkpt>
      <trkpt lat="48.25773" lon="-4.62139">
        <ele>52.166</ele>
        <time>2009-05-01T14:53:07Z</time>
      </trkpt>
      <trkpt lat="48.25784" lon="-4.62136">
        <ele>51.788</ele>
        <time>2009-05-01T14:53:19Z</time>
      </trkpt>
      <trkpt lat="48.25806" lon="-4.62132">
        <ele>48.31</ele>
        <time>2009-05-01T14:53:41Z</time>
      </trkpt>
      <trkpt lat="48.25822" lon="-4.62128">
        <ele>49.482</ele>
        <time>2009-05-01T14:53:56Z</time>
      </trkpt>
      <trkpt lat="48.25829" lon="-4.62133">
        <ele>51.666</ele>
        <time>2009-05-01T14:54:05Z</time>
      </trkpt>
      <trkpt lat="48.25837" lon="-4.6214">
        <ele>51.935</ele>
        <time>2009-05-01T14:54:14Z</time>
      </trkpt>
      <trkpt lat="48.25841" lon="-4.62141">
        <ele>50.99</ele>
        <time>2009-05-01T14:54:19Z</time>
      </trkpt>
      <trkpt lat="48.25845" lon="-4.62143">
        <ele>51.316</ele>
        <time>2009-05-01T14:54:24Z</time>
      </trkpt>
      <trkpt lat="48.25848" lon="-4.6215">
        <ele>52.2</ele>
        <time>2009-05-01T14:54:28Z</time>
      </trkpt>
      <trkpt lat="48.25855" lon="-4.62159">
        <ele>52.231</ele>
        <time>2009-05-01T14:54:40Z</time>
      </trkpt>
      <trkpt lat="48.25854" lon="-4.62158">
        <ele>52.293</ele>
        <time>2009-05-01T14:54:46Z</time>
      </trkpt>
    </trkseg>
  </trk>
</gpx>